PWSweather.com
Personal Weather Stations
Station Observations
IQUEENSL78
Red HillAU 4059

Red HillAU 4059

Lat: -27.45317, Lon: 152.997708

Elevation: 40

Station Type: FOS WH3081

High Low Average
Temperature 77.5°F25.3°C 71.4°F21.9°C 73.9°F23.3°C
Dew Point 73.3°F22.9°C 69.0°F20.6°C 71.0°F21.7°C
Winds 7.4 mph 11.9 kmh Calm Calm 1.0 mph NE1.6 kmh NE
Wind Gusts 57.3 mph92.2 kmh -- 3.0 mph4.8 kmh
Humidity 94% 85% 91%
Pressure 29.83 in1010.2 mb 29.75 in1007.5 mb -
Precipitation 1.10 in27.9 mm - -
Hour Temp Dew Point Humidity Winds Wind Gusts Pressure Precip Precip Rate Daily Precip Total
12:01 AM 72.3°F22.4°C 69.5°F20.8°C 91% Calm Calm -- 29.82 in1009.8 mb 0.00 in0.0 mm 0.00 in/hr0.0 mm/hr 0.00 in0.0 mm
12:03 AM 72.3°F22.4°C 69.5°F20.8°C 91% Calm Calm -- 29.82 in1009.8 mb 0.00 in0.0 mm 0.00 in/hr0.0 mm/hr 0.00 in0.0 mm
12:05 AM 72.3°F22.4°C 69.5°F20.8°C 91% Calm Calm -- 29.82 in1009.8 mb 0.02 in0.5 mm 0.60 in/hr15.2 mm/hr 0.02 in0.5 mm
12:07 AM 72.3°F22.4°C 69.5°F20.8°C 91% Calm Calm -- 29.82 in1009.8 mb 0.02 in0.5 mm 0.00 in/hr0.0 mm/hr 0.02 in0.5 mm
12:09 AM 72.3°F22.4°C 69.5°F20.8°C 91% Calm Calm -- 29.82 in1009.8 mb 0.02 in0.5 mm 0.00 in/hr0.0 mm/hr 0.02 in0.5 mm
12:11 AM 72.3°F22.4°C 69.5°F20.8°C 91% Calm Calm -- 29.82 in1009.8 mb 0.02 in0.5 mm 0.00 in/hr0.0 mm/hr 0.02 in0.5 mm
12:13 AM 72.1°F22.3°C 69.4°F20.8°C 91% Calm Calm -- 29.82 in1009.8 mb 0.04 in1.0 mm 0.60 in/hr15.2 mm/hr 0.04 in1.0 mm
12:15 AM 72.1°F22.3°C 69.4°F20.8°C 91% Calm Calm -- 29.82 in1009.8 mb 0.04 in1.0 mm 0.00 in/hr0.0 mm/hr 0.04 in1.0 mm
12:17 AM 72.1°F22.3°C 69.4°F20.8°C 91% Calm Calm -- 29.82 in1009.8 mb 0.06 in1.5 mm 0.60 in/hr15.2 mm/hr 0.06 in1.5 mm
12:19 AM 72.1°F22.3°C 69.4°F20.8°C 91% Calm Calm -- 29.81 in1009.5 mb 0.06 in1.5 mm 0.00 in/hr0.0 mm/hr 0.06 in1.5 mm
12:21 AM 72.1°F22.3°C 69.4°F20.8°C 91% Calm Calm -- 29.82 in1009.8 mb 0.06 in1.5 mm 0.00 in/hr0.0 mm/hr 0.06 in1.5 mm
12:23 AM 72.1°F22.3°C 69.4°F20.8°C 91% Calm Calm -- 29.81 in1009.5 mb 0.06 in1.5 mm 0.00 in/hr0.0 mm/hr 0.06 in1.5 mm
12:25 AM 72.1°F22.3°C 69.4°F20.8°C 91% Calm Calm -- 29.82 in1009.8 mb 0.06 in1.5 mm 0.00 in/hr0.0 mm/hr 0.06 in1.5 mm
12:27 AM 72.1°F22.3°C 69.7°F20.9°C 92% Calm Calm -- 29.82 in1009.8 mb 0.06 in1.5 mm 0.00 in/hr0.0 mm/hr 0.06 in1.5 mm
12:29 AM 72.1°F22.3°C 69.7°F20.9°C 92% Calm Calm -- 29.82 in1009.8 mb 0.06 in1.5 mm 0.00 in/hr0.0 mm/hr 0.06 in1.5 mm
12:31 AM 72.1°F22.3°C 69.7°F20.9°C 92% Calm Calm -- 29.82 in1009.8 mb 0.06 in1.5 mm 0.00 in/hr0.0 mm/hr 0.06 in1.5 mm
12:33 AM 72.0°F22.2°C 69.5°F20.8°C 92% Calm Calm -- 29.82 in1009.8 mb 0.06 in1.5 mm 0.00 in/hr0.0 mm/hr 0.06 in1.5 mm
12:35 AM 72.0°F22.2°C 69.5°F20.8°C 92% Calm Calm -- 29.81 in1009.5 mb 0.06 in1.5 mm 0.00 in/hr0.0 mm/hr 0.06 in1.5 mm
12:37 AM 72.0°F22.2°C 69.5°F20.8°C 92% Calm Calm -- 29.81 in1009.5 mb 0.06 in1.5 mm 0.00 in/hr0.0 mm/hr 0.06 in1.5 mm
12:39 AM 72.0°F22.2°C 69.5°F20.8°C 92% Calm Calm -- 29.81 in1009.5 mb 0.06 in1.5 mm 0.00 in/hr0.0 mm/hr 0.06 in1.5 mm
12:41 AM 72.0°F22.2°C 69.5°F20.8°C 92% Calm Calm -- 29.81 in1009.5 mb 0.06 in1.5 mm 0.00 in/hr0.0 mm/hr 0.06 in1.5 mm
12:43 AM 72.0°F22.2°C 69.5°F20.8°C 92% Calm Calm -- 29.81 in1009.5 mb 0.08 in2.0 mm 0.60 in/hr15.2 mm/hr 0.08 in2.0 mm
12:45 AM 72.0°F22.2°C 69.5°F20.8°C 92% Calm Calm -- 29.81 in1009.5 mb 0.08 in2.0 mm 0.00 in/hr0.0 mm/hr 0.08 in2.0 mm
12:47 AM 71.8°F22.1°C 69.3°F20.7°C 92% Calm Calm -- 29.81 in1009.5 mb 0.08 in2.0 mm 0.00 in/hr0.0 mm/hr 0.08 in2.0 mm
12:49 AM 71.8°F22.1°C 69.3°F20.7°C 92% Calm Calm -- 29.81 in1009.5 mb 0.08 in2.0 mm 0.00 in/hr0.0 mm/hr 0.08 in2.0 mm
12:51 AM 71.8°F22.1°C 69.3°F20.7°C 92% Calm Calm -- 29.81 in1009.5 mb 0.08 in2.0 mm 0.00 in/hr0.0 mm/hr 0.08 in2.0 mm
12:53 AM 71.8°F22.1°C 69.3°F20.7°C 92% Calm Calm -- 29.81 in1009.5 mb 0.08 in2.0 mm 0.00 in/hr0.0 mm/hr 0.08 in2.0 mm
12:55 AM 71.8°F22.1°C 69.3°F20.7°C 92% Calm Calm -- 29.81 in1009.5 mb 0.08 in2.0 mm 0.00 in/hr0.0 mm/hr 0.08 in2.0 mm
12:57 AM 71.8°F22.1°C 69.3°F20.7°C 92% Calm Calm -- 29.81 in1009.5 mb 0.08 in2.0 mm 0.00 in/hr0.0 mm/hr 0.08 in2.0 mm
12:59 AM 71.8°F22.1°C 69.3°F20.7°C 92% Calm Calm -- 29.81 in1009.5 mb 0.08 in2.0 mm 0.00 in/hr0.0 mm/hr 0.08 in2.0 mm
01:01 AM 71.8°F22.1°C 69.3°F20.7°C 92% Calm Calm -- 29.81 in1009.5 mb 0.08 in2.0 mm 0.00 in/hr0.0 mm/hr 0.08 in2.0 mm
01:03 AM 71.8°F22.1°C 69.3°F20.7°C 92% Calm Calm -- 29.81 in1009.5 mb 0.08 in2.0 mm 0.00 in/hr0.0 mm/hr 0.08 in2.0 mm
01:05 AM 71.8°F22.1°C 69.3°F20.7°C 92% Calm Calm -- 29.80 in1009.1 mb 0.06 in1.5 mm 0.00 in/hr0.0 mm/hr 0.08 in2.0 mm
01:07 AM 71.8°F22.1°C 69.3°F20.7°C 92% Calm Calm -- 29.80 in1009.1 mb 0.06 in1.5 mm 0.00 in/hr0.0 mm/hr 0.08 in2.0 mm
01:09 AM 71.8°F22.1°C 69.3°F20.7°C 92% Calm Calm -- 29.80 in1009.1 mb 0.06 in1.5 mm 0.00 in/hr0.0 mm/hr 0.08 in2.0 mm
01:11 AM 71.8°F22.1°C 69.3°F20.7°C 92% Calm Calm -- 29.80 in1009.1 mb 0.06 in1.5 mm 0.00 in/hr0.0 mm/hr 0.08 in2.0 mm
01:13 AM 71.8°F22.1°C 69.3°F20.7°C 92% Calm Calm -- 29.80 in1009.1 mb 0.04 in1.0 mm 0.00 in/hr0.0 mm/hr 0.08 in2.0 mm
01:15 AM 71.8°F22.1°C 69.3°F20.7°C 92% Calm Calm -- 29.80 in1009.1 mb 0.04 in1.0 mm 0.00 in/hr0.0 mm/hr 0.08 in2.0 mm
01:17 AM 71.8°F22.1°C 69.3°F20.7°C 92% Calm Calm -- 29.79 in1008.8 mb 0.02 in0.5 mm 0.00 in/hr0.0 mm/hr 0.08 in2.0 mm
01:19 AM 71.8°F22.1°C 69.3°F20.7°C 92% Calm Calm -- 29.79 in1008.8 mb 0.02 in0.5 mm 0.00 in/hr0.0 mm/hr 0.08 in2.0 mm
01:21 AM 71.8°F22.1°C 69.3°F20.7°C 92% Calm Calm -- 29.79 in1008.8 mb 0.02 in0.5 mm 0.00 in/hr0.0 mm/hr 0.08 in2.0 mm
01:23 AM 71.8°F22.1°C 69.3°F20.7°C 92% Calm Calm -- 29.80 in1009.1 mb 0.02 in0.5 mm 0.00 in/hr0.0 mm/hr 0.08 in2.0 mm
01:25 AM 71.8°F22.1°C 69.3°F20.7°C 92% Calm Calm -- 29.79 in1008.8 mb 0.02 in0.5 mm 0.00 in/hr0.0 mm/hr 0.08 in2.0 mm
01:27 AM 71.8°F22.1°C 69.3°F20.7°C 92% Calm Calm -- 29.79 in1008.8 mb 0.02 in0.5 mm 0.00 in/hr0.0 mm/hr 0.08 in2.0 mm
01:29 AM 71.8°F22.1°C 69.3°F20.7°C 92% Calm Calm -- 29.79 in1008.8 mb 0.02 in0.5 mm 0.00 in/hr0.0 mm/hr 0.08 in2.0 mm
01:31 AM 71.8°F22.1°C 69.3°F20.7°C 92% Calm Calm -- 29.79 in1008.8 mb 0.02 in0.5 mm 0.00 in/hr0.0 mm/hr 0.08 in2.0 mm
01:33 AM 71.8°F22.1°C 69.3°F20.7°C 92% Calm Calm -- 29.79 in1008.8 mb 0.02 in0.5 mm 0.00 in/hr0.0 mm/hr 0.08 in2.0 mm
01:35 AM 71.8°F22.1°C 69.3°F20.7°C 92% Calm Calm -- 29.79 in1008.8 mb 0.04 in1.0 mm 0.60 in/hr15.2 mm/hr 0.10 in2.5 mm
01:37 AM 71.8°F22.1°C 69.3°F20.7°C 92% Calm Calm -- 29.79 in1008.8 mb 0.04 in1.0 mm 0.00 in/hr0.0 mm/hr 0.10 in2.5 mm
01:39 AM 71.6°F22.0°C 69.2°F20.7°C 92% Calm Calm -- 29.79 in1008.8 mb 0.04 in1.0 mm 0.00 in/hr0.0 mm/hr 0.10 in2.5 mm
01:41 AM 71.6°F22.0°C 69.2°F20.7°C 92% Calm Calm -- 29.79 in1008.8 mb 0.04 in1.0 mm 0.00 in/hr0.0 mm/hr 0.10 in2.5 mm
01:43 AM 71.6°F22.0°C 69.2°F20.7°C 92% Calm Calm -- 29.79 in1008.8 mb 0.04 in1.0 mm 0.00 in/hr0.0 mm/hr 0.12 in3.0 mm
01:45 AM 71.6°F22.0°C 69.2°F20.7°C 92% Calm Calm -- 29.78 in1008.5 mb 0.04 in1.0 mm 0.00 in/hr0.0 mm/hr 0.12 in3.0 mm
01:47 AM 71.6°F22.0°C 69.2°F20.7°C 92% Calm Calm -- 29.79 in1008.8 mb 0.04 in1.0 mm 0.00 in/hr0.0 mm/hr 0.12 in3.0 mm
01:49 AM 71.6°F22.0°C 69.5°F20.8°C 93% Calm Calm -- 29.78 in1008.5 mb 0.04 in1.0 mm 0.00 in/hr0.0 mm/hr 0.12 in3.0 mm
01:51 AM 71.4°F21.9°C 69.3°F20.7°C 93% Calm Calm -- 29.78 in1008.5 mb 0.04 in1.0 mm 0.00 in/hr0.0 mm/hr 0.12 in3.0 mm
01:53 AM 71.6°F22.0°C 69.5°F20.8°C 93% Calm Calm -- 29.78 in1008.5 mb 0.04 in1.0 mm 0.00 in/hr0.0 mm/hr 0.12 in3.0 mm
01:55 AM 71.6°F22.0°C 69.5°F20.8°C 93% Calm Calm -- 29.78 in1008.5 mb 0.04 in1.0 mm 0.00 in/hr0.0 mm/hr 0.12 in3.0 mm
01:57 AM 71.6°F22.0°C 69.5°F20.8°C 93% Calm Calm -- 29.78 in1008.5 mb 0.04 in1.0 mm 0.00 in/hr0.0 mm/hr 0.12 in3.0 mm
01:59 AM 71.6°F22.0°C 69.5°F20.8°C 93% Calm Calm -- 29.78 in1008.5 mb 0.04 in1.0 mm 0.00 in/hr0.0 mm/hr 0.12 in3.0 mm
02:01 AM 71.6°F22.0°C 69.5°F20.8°C 93% Calm Calm -- 29.78 in1008.5 mb 0.06 in1.5 mm 0.02 in/hr0.5 mm/hr 0.14 in3.6 mm
02:03 AM 71.6°F22.0°C 69.5°F20.8°C 93% Calm Calm -- 29.78 in1008.5 mb 0.06 in1.5 mm 0.00 in/hr0.0 mm/hr 0.14 in3.6 mm
02:05 AM 71.4°F21.9°C 69.3°F20.7°C 93% Calm Calm -- 29.78 in1008.5 mb 0.06 in1.5 mm 0.00 in/hr0.0 mm/hr 0.14 in3.6 mm
02:07 AM 71.4°F21.9°C 69.3°F20.7°C 93% Calm Calm -- 29.78 in1008.5 mb 0.06 in1.5 mm 0.00 in/hr0.0 mm/hr 0.14 in3.6 mm
02:09 AM 71.4°F21.9°C 69.3°F20.7°C 93% Calm Calm -- 29.78 in1008.5 mb 0.06 in1.5 mm 0.00 in/hr0.0 mm/hr 0.14 in3.6 mm
02:11 AM 71.4°F21.9°C 69.3°F20.7°C 93% 0.9 mph E1.4 kmh E 0.9 mph1.4 kmh 29.78 in1008.5 mb 0.06 in1.5 mm 0.00 in/hr0.0 mm/hr 0.14 in3.6 mm
02:13 AM 71.4°F21.9°C 69.3°F20.7°C 93% Calm Calm 0.9 mph1.4 kmh 29.78 in1008.5 mb 0.06 in1.5 mm 0.00 in/hr0.0 mm/hr 0.14 in3.6 mm
02:15 AM 71.4°F21.9°C 69.3°F20.7°C 93% Calm Calm 0.9 mph1.4 kmh 29.77 in1008.1 mb 0.06 in1.5 mm 0.00 in/hr0.0 mm/hr 0.14 in3.6 mm
02:17 AM 71.4°F21.9°C 69.3°F20.7°C 93% Calm Calm 0.9 mph1.4 kmh 29.78 in1008.5 mb 0.08 in2.0 mm 0.60 in/hr15.2 mm/hr 0.16 in4.1 mm
02:19 AM 71.4°F21.9°C 69.3°F20.7°C 93% Calm Calm 0.9 mph1.4 kmh 29.78 in1008.5 mb 0.08 in2.0 mm 0.00 in/hr0.0 mm/hr 0.16 in4.1 mm
02:21 AM 71.4°F21.9°C 69.3°F20.7°C 93% Calm Calm 0.9 mph1.4 kmh 29.78 in1008.5 mb 0.08 in2.0 mm 0.00 in/hr0.0 mm/hr 0.16 in4.1 mm
02:23 AM 71.4°F21.9°C 69.3°F20.7°C 93% Calm Calm -- 29.78 in1008.5 mb 0.08 in2.0 mm 0.00 in/hr0.0 mm/hr 0.16 in4.1 mm
02:25 AM 71.4°F21.9°C 69.3°F20.7°C 93% Calm Calm -- 29.78 in1008.5 mb 0.08 in2.0 mm 0.00 in/hr0.0 mm/hr 0.16 in4.1 mm
02:27 AM 71.4°F21.9°C 69.3°F20.7°C 93% Calm Calm -- 29.78 in1008.5 mb 0.08 in2.0 mm 0.00 in/hr0.0 mm/hr 0.16 in4.1 mm
02:29 AM 71.4°F21.9°C 69.3°F20.7°C 93% Calm Calm -- 29.78 in1008.5 mb 0.08 in2.0 mm 0.00 in/hr0.0 mm/hr 0.16 in4.1 mm
02:31 AM 71.4°F21.9°C 69.3°F20.7°C 93% Calm Calm -- 29.78 in1008.5 mb 0.08 in2.0 mm 0.00 in/hr0.0 mm/hr 0.16 in4.1 mm
02:33 AM 71.4°F21.9°C 69.3°F20.7°C 93% Calm Calm -- 29.78 in1008.5 mb 0.06 in1.5 mm 0.00 in/hr0.0 mm/hr 0.16 in4.1 mm
02:35 AM 71.4°F21.9°C 69.3°F20.7°C 93% Calm Calm -- 29.78 in1008.5 mb 0.06 in1.5 mm 0.00 in/hr0.0 mm/hr 0.16 in4.1 mm
02:37 AM 71.4°F21.9°C 69.3°F20.7°C 93% Calm Calm -- 29.78 in1008.5 mb 0.06 in1.5 mm 0.00 in/hr0.0 mm/hr 0.16 in4.1 mm
02:39 AM 71.4°F21.9°C 69.3°F20.7°C 93% Calm Calm -- 29.78 in1008.5 mb 0.06 in1.5 mm 0.00 in/hr0.0 mm/hr 0.16 in4.1 mm
02:41 AM 71.4°F21.9°C 69.3°F20.7°C 93% Calm Calm -- 29.78 in1008.5 mb 0.06 in1.5 mm 0.00 in/hr0.0 mm/hr 0.16 in4.1 mm
02:43 AM 71.4°F21.9°C 69.3°F20.7°C 93% Calm Calm -- 29.78 in1008.5 mb 0.04 in1.0 mm 0.00 in/hr0.0 mm/hr 0.16 in4.1 mm
02:45 AM 71.4°F21.9°C 69.3°F20.7°C 93% Calm Calm -- 29.78 in1008.5 mb 0.04 in1.0 mm 0.00 in/hr0.0 mm/hr 0.16 in4.1 mm
02:47 AM 71.4°F21.9°C 69.3°F20.7°C 93% Calm Calm -- 29.77 in1008.1 mb 0.04 in1.0 mm 0.00 in/hr0.0 mm/hr 0.16 in4.1 mm
02:49 AM 71.4°F21.9°C 69.3°F20.7°C 93% Calm Calm -- 29.77 in1008.1 mb 0.04 in1.0 mm 0.00 in/hr0.0 mm/hr 0.16 in4.1 mm
02:51 AM 71.4°F21.9°C 69.3°F20.7°C 93% Calm Calm -- 29.78 in1008.5 mb 0.04 in1.0 mm 0.00 in/hr0.0 mm/hr 0.16 in4.1 mm
02:53 AM 71.4°F21.9°C 69.3°F20.7°C 93% Calm Calm -- 29.77 in1008.1 mb 0.04 in1.0 mm 0.00 in/hr0.0 mm/hr 0.16 in4.1 mm
02:55 AM 71.4°F21.9°C 69.3°F20.7°C 93% Calm Calm -- 29.77 in1008.1 mb 0.04 in1.0 mm 0.00 in/hr0.0 mm/hr 0.16 in4.1 mm
02:57 AM 71.4°F21.9°C 69.3°F20.7°C 93% Calm Calm -- 29.77 in1008.1 mb 0.04 in1.0 mm 0.00 in/hr0.0 mm/hr 0.16 in4.1 mm
02:59 AM 71.4°F21.9°C 69.3°F20.7°C 93% Calm Calm -- 29.77 in1008.1 mb 0.02 in0.5 mm 0.00 in/hr0.0 mm/hr 0.16 in4.1 mm
03:01 AM 71.4°F21.9°C 69.3°F20.7°C 93% Calm Calm -- 29.77 in1008.1 mb 0.02 in0.5 mm 0.00 in/hr0.0 mm/hr 0.16 in4.1 mm
03:03 AM 71.4°F21.9°C 69.3°F20.7°C 93% Calm Calm -- 29.77 in1008.1 mb 0.02 in0.5 mm 0.00 in/hr0.0 mm/hr 0.16 in4.1 mm
03:05 AM 71.4°F21.9°C 69.3°F20.7°C 93% Calm Calm -- 29.77 in1008.1 mb 0.02 in0.5 mm 0.00 in/hr0.0 mm/hr 0.16 in4.1 mm
03:07 AM 71.4°F21.9°C 69.3°F20.7°C 93% Calm Calm -- 29.77 in1008.1 mb 0.02 in0.5 mm 0.00 in/hr0.0 mm/hr 0.16 in4.1 mm
03:09 AM 71.4°F21.9°C 69.3°F20.7°C 93% Calm Calm -- 29.77 in1008.1 mb 0.02 in0.5 mm 0.00 in/hr0.0 mm/hr 0.16 in4.1 mm
03:11 AM 71.4°F21.9°C 69.3°F20.7°C 93% Calm Calm -- 29.77 in1008.1 mb 0.02 in0.5 mm 0.00 in/hr0.0 mm/hr 0.16 in4.1 mm
03:13 AM 71.4°F21.9°C 69.3°F20.7°C 93% Calm Calm -- 29.77 in1008.1 mb 0.02 in0.5 mm 0.00 in/hr0.0 mm/hr 0.16 in4.1 mm
03:15 AM 71.4°F21.9°C 69.3°F20.7°C 93% Calm Calm -- 29.77 in1008.1 mb 0.02 in0.5 mm 0.00 in/hr0.0 mm/hr 0.16 in4.1 mm
03:17 AM 71.4°F21.9°C 69.3°F20.7°C 93% Calm Calm -- 29.77 in1008.1 mb 0.00 in0.0 mm 0.00 in/hr0.0 mm/hr 0.16 in4.1 mm
03:19 AM 71.4°F21.9°C 69.3°F20.7°C 93% Calm Calm -- 29.77 in1008.1 mb 0.00 in0.0 mm 0.00 in/hr0.0 mm/hr 0.16 in4.1 mm
03:21 AM 71.4°F21.9°C 69.3°F20.7°C 93% Calm Calm -- 29.77 in1008.1 mb 0.00 in0.0 mm 0.00 in/hr0.0 mm/hr 0.16 in4.1 mm
03:23 AM 71.4°F21.9°C 69.3°F20.7°C 93% Calm Calm -- 29.77 in1008.1 mb 0.00 in0.0 mm 0.00 in/hr0.0 mm/hr 0.16 in4.1 mm
03:25 AM 71.4°F21.9°C 69.3°F20.7°C 93% Calm Calm -- 29.77 in1008.1 mb 0.00 in0.0 mm 0.00 in/hr0.0 mm/hr 0.16 in4.1 mm
03:27 AM 71.4°F21.9°C 69.3°F20.7°C 93% Calm Calm -- 29.77 in1008.1 mb 0.00 in0.0 mm 0.00 in/hr0.0 mm/hr 0.16 in4.1 mm
03:29 AM 71.4°F21.9°C 69.3°F20.7°C 93% Calm Calm -- 29.77 in1008.1 mb 0.00 in0.0 mm 0.00 in/hr0.0 mm/hr 0.16 in4.1 mm
03:31 AM 71.4°F21.9°C 69.3°F20.7°C 93% Calm Calm -- 29.77 in1008.1 mb 0.00 in0.0 mm 0.00 in/hr0.0 mm/hr 0.16 in4.1 mm
03:33 AM 71.4°F21.9°C 69.3°F20.7°C 93% Calm Calm -- 29.76 in1007.8 mb 0.00 in0.0 mm 0.00 in/hr0.0 mm/hr 0.16 in4.1 mm
03:35 AM 71.4°F21.9°C 69.3°F20.7°C 93% Calm Calm -- 29.77 in1008.1 mb 0.00 in0.0 mm 0.00 in/hr0.0 mm/hr 0.16 in4.1 mm
03:37 AM 71.4°F21.9°C 69.3°F20.7°C 93% Calm Calm -- 29.77 in1008.1 mb 0.00 in0.0 mm 0.00 in/hr0.0 mm/hr 0.16 in4.1 mm
03:39 AM 71.4°F21.9°C 69.3°F20.7°C 93% Calm Calm -- 29.77 in1008.1 mb 0.00 in0.0 mm 0.00 in/hr0.0 mm/hr 0.16 in4.1 mm
03:41 AM 71.4°F21.9°C 69.3°F20.7°C 93% Calm Calm -- 29.77 in1008.1 mb 0.00 in0.0 mm 0.00 in/hr0.0 mm/hr 0.16 in4.1 mm
03:43 AM 71.4°F21.9°C 69.3°F20.7°C 93% Calm Calm -- 29.77 in1008.1 mb 0.00 in0.0 mm 0.00 in/hr0.0 mm/hr 0.16 in4.1 mm
03:45 AM 71.4°F21.9°C 69.3°F20.7°C 93% Calm Calm -- 29.77 in1008.1 mb 0.00 in0.0 mm 0.00 in/hr0.0 mm/hr 0.16 in4.1 mm
03:47 AM 71.4°F21.9°C 69.3°F20.7°C 93% Calm Calm -- 29.77 in1008.1 mb 0.00 in0.0 mm 0.00 in/hr0.0 mm/hr 0.16 in4.1 mm
03:49 AM 71.4°F21.9°C 69.3°F20.7°C 93% Calm Calm -- 29.77 in1008.1 mb 0.00 in0.0 mm 0.00 in/hr0.0 mm/hr 0.16 in4.1 mm
03:51 AM 71.4°F21.9°C 69.3°F20.7°C 93% Calm Calm -- 29.77 in1008.1 mb 0.00 in0.0 mm 0.00 in/hr0.0 mm/hr 0.16 in4.1 mm
03:53 AM 71.4°F21.9°C 69.3°F20.7°C 93% Calm Calm -- 29.77 in1008.1 mb 0.00 in0.0 mm 0.00 in/hr0.0 mm/hr 0.16 in4.1 mm
03:55 AM 71.4°F21.9°C 69.3°F20.7°C 93% Calm Calm -- 29.77 in1008.1 mb 0.00 in0.0 mm 0.00 in/hr0.0 mm/hr 0.16 in4.1 mm
03:57 AM 71.4°F21.9°C 69.3°F20.7°C 93% Calm Calm -- 29.78 in1008.5 mb 0.00 in0.0 mm 0.00 in/hr0.0 mm/hr 0.16 in4.1 mm
03:59 AM 71.4°F21.9°C 69.3°F20.7°C 93% Calm Calm -- 29.77 in1008.1 mb 0.00 in0.0 mm 0.00 in/hr0.0 mm/hr 0.16 in4.1 mm
04:01 AM 71.4°F21.9°C 69.3°F20.7°C 93% Calm Calm -- 29.77 in1008.1 mb 0.00 in0.0 mm 0.00 in/hr0.0 mm/hr 0.16 in4.1 mm
04:03 AM 71.4°F21.9°C 69.3°F20.7°C 93% Calm Calm -- 29.77 in1008.1 mb 0.00 in0.0 mm 0.00 in/hr0.0 mm/hr 0.16 in4.1 mm
04:05 AM 71.4°F21.9°C 69.3°F20.7°C 93% Calm Calm -- 29.77 in1008.1 mb 0.00 in0.0 mm 0.00 in/hr0.0 mm/hr 0.16 in4.1 mm
04:07 AM 71.4°F21.9°C 69.3°F20.7°C 93% Calm Calm -- 29.77 in1008.1 mb 0.00 in0.0 mm 0.00 in/hr0.0 mm/hr 0.16 in4.1 mm
04:09 AM 71.4°F21.9°C 69.3°F20.7°C 93% Calm Calm -- 29.77 in1008.1 mb 0.00 in0.0 mm 0.00 in/hr0.0 mm/hr 0.16 in4.1 mm
04:11 AM 71.4°F21.9°C 69.3°F20.7°C 93% Calm Calm -- 29.78 in1008.5 mb 0.00 in0.0 mm 0.00 in/hr0.0 mm/hr 0.16 in4.1 mm
04:13 AM 71.4°F21.9°C 69.3°F20.7°C 93% Calm Calm -- 29.78 in1008.5 mb 0.00 in0.0 mm 0.00 in/hr0.0 mm/hr 0.16 in4.1 mm
04:15 AM 71.4°F21.9°C 69.3°F20.7°C 93% Calm Calm -- 29.77 in1008.1 mb 0.00 in0.0 mm 0.00 in/hr0.0 mm/hr 0.16 in4.1 mm
04:17 AM 71.4°F21.9°C 69.3°F20.7°C 93% Calm Calm -- 29.77 in1008.1 mb 0.00 in0.0 mm 0.00 in/hr0.0 mm/hr 0.16 in4.1 mm
04:19 AM 71.4°F21.9°C 69.3°F20.7°C 93% Calm Calm -- 29.78 in1008.5 mb 0.00 in0.0 mm 0.00 in/hr0.0 mm/hr 0.16 in4.1 mm
04:21 AM 71.4°F21.9°C 69.3°F20.7°C 93% Calm Calm -- 29.77 in1008.1 mb 0.00 in0.0 mm 0.00 in/hr0.0 mm/hr 0.16 in4.1 mm
04:23 AM 71.4°F21.9°C 69.3°F20.7°C 93% Calm Calm -- 29.77 in1008.1 mb 0.00 in0.0 mm 0.00 in/hr0.0 mm/hr 0.16 in4.1 mm
04:25 AM 71.4°F21.9°C 69.3°F20.7°C 93% Calm Calm -- 29.78 in1008.5 mb 0.00 in0.0 mm 0.00 in/hr0.0 mm/hr 0.16 in4.1 mm
04:27 AM 71.4°F21.9°C 69.3°F20.7°C 93% Calm Calm -- 29.78 in1008.5 mb 0.00 in0.0 mm 0.00 in/hr0.0 mm/hr 0.16 in4.1 mm
04:29 AM 71.4°F21.9°C 69.3°F20.7°C 93% Calm Calm -- 29.78 in1008.5 mb 0.00 in0.0 mm 0.00 in/hr0.0 mm/hr 0.16 in4.1 mm
04:31 AM 71.4°F21.9°C 69.3°F20.7°C 93% Calm Calm -- 29.77 in1008.1 mb 0.00 in0.0 mm 0.00 in/hr0.0 mm/hr 0.16 in4.1 mm
04:33 AM 71.4°F21.9°C 69.3°F20.7°C 93% Calm Calm -- 29.77 in1008.1 mb 0.00 in0.0 mm 0.00 in/hr0.0 mm/hr 0.16 in4.1 mm
04:35 AM 71.4°F21.9°C 69.3°F20.7°C 93% Calm Calm -- 29.78 in1008.5 mb 0.00 in0.0 mm 0.00 in/hr0.0 mm/hr 0.16 in4.1 mm
04:43 AM 71.4°F21.9°C 69.3°F20.7°C 93% Calm Calm -- 29.78 in1008.5 mb 0.00 in0.0 mm 0.00 in/hr0.0 mm/hr 0.16 in4.1 mm
04:45 AM 71.4°F21.9°C 69.3°F20.7°C 93% Calm Calm -- 29.78 in1008.5 mb 0.00 in0.0 mm 0.00 in/hr0.0 mm/hr 0.16 in4.1 mm
04:47 AM 71.4°F21.9°C 69.3°F20.7°C 93% Calm Calm -- 29.78 in1008.5 mb 0.00 in0.0 mm 0.00 in/hr0.0 mm/hr 0.16 in4.1 mm
04:49 AM 71.4°F21.9°C 69.3°F20.7°C 93% Calm Calm -- 29.78 in1008.5 mb 0.00 in0.0 mm 0.00 in/hr0.0 mm/hr 0.16 in4.1 mm
04:51 AM 71.4°F21.9°C 69.3°F20.7°C 93% Calm Calm -- 29.78 in1008.5 mb 0.00 in0.0 mm 0.00 in/hr0.0 mm/hr 0.16 in4.1 mm
04:53 AM 71.4°F21.9°C 69.3°F20.7°C 93% Calm Calm -- 29.78 in1008.5 mb 0.00 in0.0 mm 0.00 in/hr0.0 mm/hr 0.16 in4.1 mm
04:55 AM 71.4°F21.9°C 69.3°F20.7°C 93% Calm Calm -- 29.78 in1008.5 mb 0.00 in0.0 mm 0.00 in/hr0.0 mm/hr 0.16 in4.1 mm
04:57 AM 71.4°F21.9°C 69.3°F20.7°C 93% Calm Calm -- 29.78 in1008.5 mb 0.00 in0.0 mm 0.00 in/hr0.0 mm/hr 0.16 in4.1 mm
04:59 AM 71.4°F21.9°C 69.3°F20.7°C 93% Calm Calm -- 29.78 in1008.5 mb 0.00 in0.0 mm 0.00 in/hr0.0 mm/hr 0.16 in4.1 mm
05:01 AM 71.4°F21.9°C 69.3°F20.7°C 93% Calm Calm -- 29.78 in1008.5 mb 0.00 in0.0 mm 0.00 in/hr0.0 mm/hr 0.16 in4.1 mm
05:03 AM 71.4°F21.9°C 69.3°F20.7°C 93% Calm Calm -- 29.78 in1008.5 mb 0.00 in0.0 mm 0.00 in/hr0.0 mm/hr 0.16 in4.1 mm
05:05 AM 71.4°F21.9°C 69.3°F20.7°C 93% Calm Calm -- 29.78 in1008.5 mb 0.00 in0.0 mm 0.00 in/hr0.0 mm/hr 0.16 in4.1 mm
05:07 AM 71.4°F21.9°C 69.3°F20.7°C 93% Calm Calm -- 29.78 in1008.5 mb 0.00 in0.0 mm 0.00 in/hr0.0 mm/hr 0.16 in4.1 mm
05:09 AM 71.4°F21.9°C 69.3°F20.7°C 93% Calm Calm -- 29.78 in1008.5 mb 0.00 in0.0 mm 0.00 in/hr0.0 mm/hr 0.16 in4.1 mm
05:11 AM 71.4°F21.9°C 69.3°F20.7°C 93% Calm Calm -- 29.78 in1008.5 mb 0.00 in0.0 mm 0.00 in/hr0.0 mm/hr 0.16 in4.1 mm
05:13 AM 71.4°F21.9°C 69.3°F20.7°C 93% Calm Calm -- 29.78 in1008.5 mb 0.00 in0.0 mm 0.00 in/hr0.0 mm/hr 0.16 in4.1 mm
05:15 AM 71.4°F21.9°C 69.3°F20.7°C 93% Calm Calm -- 29.78 in1008.5 mb 0.00 in0.0 mm 0.00 in/hr0.0 mm/hr 0.16 in4.1 mm
05:17 AM 71.4°F21.9°C 69.3°F20.7°C 93% Calm Calm -- 29.78 in1008.5 mb 0.00 in0.0 mm 0.00 in/hr0.0 mm/hr 0.16 in4.1 mm
05:19 AM 71.4°F21.9°C 69.3°F20.7°C 93% Calm Calm -- 29.79 in1008.8 mb 0.00 in0.0 mm 0.00 in/hr0.0 mm/hr 0.16 in4.1 mm
05:21 AM 71.4°F21.9°C 69.3°F20.7°C 93% Calm Calm -- 29.79 in1008.8 mb 0.00 in0.0 mm 0.00 in/hr0.0 mm/hr 0.16 in4.1 mm
05:23 AM 71.4°F21.9°C 69.3°F20.7°C 93% Calm Calm -- 29.79 in1008.8 mb 0.00 in0.0 mm 0.00 in/hr0.0 mm/hr 0.16 in4.1 mm
05:25 AM 71.4°F21.9°C 69.3°F20.7°C 93% Calm Calm -- 29.79 in1008.8 mb 0.00 in0.0 mm 0.00 in/hr0.0 mm/hr 0.16 in4.1 mm
05:27 AM 71.4°F21.9°C 69.3°F20.7°C 93% Calm Calm -- 29.79 in1008.8 mb 0.00 in0.0 mm 0.00 in/hr0.0 mm/hr 0.16 in4.1 mm
05:29 AM 71.4°F21.9°C 69.3°F20.7°C 93% Calm Calm -- 29.79 in1008.8 mb 0.00 in0.0 mm 0.00 in/hr0.0 mm/hr 0.16 in4.1 mm
05:31 AM 71.4°F21.9°C 69.3°F20.7°C 93% Calm Calm -- 29.79 in1008.8 mb 0.00 in0.0 mm 0.00 in/hr0.0 mm/hr 0.16 in4.1 mm
05:33 AM 71.4°F21.9°C 69.3°F20.7°C 93% Calm Calm -- 29.79 in1008.8 mb 0.00 in0.0 mm 0.00 in/hr0.0 mm/hr 0.16 in4.1 mm
05:35 AM 71.4°F21.9°C 69.3°F20.7°C 93% Calm Calm -- 29.79 in1008.8 mb 0.00 in0.0 mm 0.00 in/hr0.0 mm/hr 0.16 in4.1 mm
05:37 AM 71.4°F21.9°C 69.3°F20.7°C 93% Calm Calm -- 29.79 in1008.8 mb 0.00 in0.0 mm 0.00 in/hr0.0 mm/hr 0.16 in4.1 mm
05:39 AM 71.4°F21.9°C 69.3°F20.7°C 93% Calm Calm -- 29.80 in1009.1 mb 0.00 in0.0 mm 0.00 in/hr0.0 mm/hr 0.16 in4.1 mm
05:41 AM 71.4°F21.9°C 69.3°F20.7°C 93% Calm Calm -- 29.79 in1008.8 mb 0.00 in0.0 mm 0.00 in/hr0.0 mm/hr 0.16 in4.1 mm
05:43 AM 71.4°F21.9°C 69.3°F20.7°C 93% Calm Calm -- 29.79 in1008.8 mb 0.00 in0.0 mm 0.00 in/hr0.0 mm/hr 0.16 in4.1 mm
05:45 AM 71.4°F21.9°C 69.3°F20.7°C 93% Calm Calm -- 29.80 in1009.1 mb 0.00 in0.0 mm 0.00 in/hr0.0 mm/hr 0.16 in4.1 mm
05:47 AM 71.4°F21.9°C 69.3°F20.7°C 93% Calm Calm -- 29.80 in1009.1 mb 0.00 in0.0 mm 0.00 in/hr0.0 mm/hr 0.16 in4.1 mm
05:49 AM 71.4°F21.9°C 69.3°F20.7°C 93% Calm Calm -- 29.80 in1009.1 mb 0.00 in0.0 mm 0.00 in/hr0.0 mm/hr 0.16 in4.1 mm
05:51 AM 71.4°F21.9°C 69.3°F20.7°C 93% Calm Calm -- 29.80 in1009.1 mb 0.00 in0.0 mm 0.00 in/hr0.0 mm/hr 0.16 in4.1 mm
05:53 AM 71.4°F21.9°C 69.3°F20.7°C 93% Calm Calm -- 29.80 in1009.1 mb 0.00 in0.0 mm 0.00 in/hr0.0 mm/hr 0.16 in4.1 mm
05:55 AM 71.4°F21.9°C 69.3°F20.7°C 93% Calm Calm -- 29.81 in1009.5 mb 0.00 in0.0 mm 0.00 in/hr0.0 mm/hr 0.16 in4.1 mm
05:57 AM 71.4°F21.9°C 69.3°F20.7°C 93% Calm Calm -- 29.80 in1009.1 mb 0.00 in0.0 mm 0.00 in/hr0.0 mm/hr 0.16 in4.1 mm
05:59 AM 71.4°F21.9°C 69.3°F20.7°C 93% Calm Calm -- 29.80 in1009.1 mb 0.00 in0.0 mm 0.00 in/hr0.0 mm/hr 0.16 in4.1 mm
06:01 AM 71.4°F21.9°C 69.3°F20.7°C 93% Calm Calm -- 29.80 in1009.1 mb 0.00 in0.0 mm 0.00 in/hr0.0 mm/hr 0.16 in4.1 mm
06:03 AM 71.4°F21.9°C 69.3°F20.7°C 93% Calm Calm -- 29.80 in1009.1 mb 0.00 in0.0 mm 0.00 in/hr0.0 mm/hr 0.16 in4.1 mm
06:05 AM 71.4°F21.9°C 69.3°F20.7°C 93% Calm Calm -- 29.80 in1009.1 mb 0.00 in0.0 mm 0.00 in/hr0.0 mm/hr 0.16 in4.1 mm
06:07 AM 71.4°F21.9°C 69.3°F20.7°C 93% Calm Calm -- 29.80 in1009.1 mb 0.00 in0.0 mm 0.00 in/hr0.0 mm/hr 0.16 in4.1 mm
06:09 AM 71.4°F21.9°C 69.3°F20.7°C 93% Calm Calm -- 29.80 in1009.1 mb 0.00 in0.0 mm 0.00 in/hr0.0 mm/hr 0.16 in4.1 mm
06:11 AM 71.4°F21.9°C 69.3°F20.7°C 93% Calm Calm -- 29.81 in1009.5 mb 0.00 in0.0 mm 0.00 in/hr0.0 mm/hr 0.16 in4.1 mm
06:13 AM 71.4°F21.9°C 69.6°F20.9°C 94% Calm Calm -- 29.81 in1009.5 mb 0.00 in0.0 mm 0.00 in/hr0.0 mm/hr 0.16 in4.1 mm
06:15 AM 71.4°F21.9°C 69.3°F20.7°C 93% Calm Calm -- 29.81 in1009.5 mb 0.00 in0.0 mm 0.00 in/hr0.0 mm/hr 0.16 in4.1 mm
06:17 AM 71.4°F21.9°C 69.6°F20.9°C 94% Calm Calm -- 29.81 in1009.5 mb 0.00 in0.0 mm 0.00 in/hr0.0 mm/hr 0.16 in4.1 mm
06:19 AM 71.4°F21.9°C 69.6°F20.9°C 94% Calm Calm -- 29.81 in1009.5 mb 0.00 in0.0 mm 0.00 in/hr0.0 mm/hr 0.16 in4.1 mm
06:21 AM 71.4°F21.9°C 69.6°F20.9°C 94% Calm Calm -- 29.81 in1009.5 mb 0.00 in0.0 mm 0.00 in/hr0.0 mm/hr 0.16 in4.1 mm
06:23 AM 71.4°F21.9°C 69.3°F20.7°C 93% Calm Calm -- 29.81 in1009.5 mb 0.00 in0.0 mm 0.00 in/hr0.0 mm/hr 0.16 in4.1 mm
06:25 AM 71.4°F21.9°C 69.6°F20.9°C 94% Calm Calm -- 29.81 in1009.5 mb 0.00 in0.0 mm 0.00 in/hr0.0 mm/hr 0.16 in4.1 mm
06:27 AM 71.4°F21.9°C 69.6°F20.9°C 94% Calm Calm -- 29.81 in1009.5 mb 0.00 in0.0 mm 0.00 in/hr0.0 mm/hr 0.16 in4.1 mm
06:29 AM 71.4°F21.9°C 69.6°F20.9°C 94% Calm Calm -- 29.81 in1009.5 mb 0.00 in0.0 mm 0.00 in/hr0.0 mm/hr 0.16 in4.1 mm
06:31 AM 71.4°F21.9°C 69.6°F20.9°C 94% Calm Calm -- 29.81 in1009.5 mb 0.00 in0.0 mm 0.00 in/hr0.0 mm/hr 0.16 in4.1 mm
06:33 AM 71.4°F21.9°C 69.6°F20.9°C 94% Calm Calm -- 29.81 in1009.5 mb 0.00 in0.0 mm 0.00 in/hr0.0 mm/hr 0.16 in4.1 mm
06:35 AM 71.4°F21.9°C 69.6°F20.9°C 94% Calm Calm -- 29.81 in1009.5 mb 0.00 in0.0 mm 0.00 in/hr0.0 mm/hr 0.16 in4.1 mm
06:37 AM 71.4°F21.9°C 69.6°F20.9°C 94% Calm Calm -- 29.81 in1009.5 mb 0.00 in0.0 mm 0.00 in/hr0.0 mm/hr 0.16 in4.1 mm
06:39 AM 71.4°F21.9°C 69.6°F20.9°C 94% Calm Calm -- 29.81 in1009.5 mb 0.02 in0.5 mm 0.60 in/hr15.2 mm/hr 0.18 in4.6 mm
06:41 AM 71.4°F21.9°C 69.6°F20.9°C 94% Calm Calm -- 29.81 in1009.5 mb 0.02 in0.5 mm 0.00 in/hr0.0 mm/hr 0.18 in4.6 mm
06:43 AM 71.4°F21.9°C 69.6°F20.9°C 94% Calm Calm -- 29.81 in1009.5 mb 0.04 in1.0 mm 0.60 in/hr15.2 mm/hr 0.20 in5.1 mm
06:45 AM 71.4°F21.9°C 69.6°F20.9°C 94% Calm Calm -- 29.81 in1009.5 mb 0.04 in1.0 mm 0.00 in/hr0.0 mm/hr 0.20 in5.1 mm
06:47 AM 71.4°F21.9°C 69.6°F20.9°C 94% Calm Calm -- 29.81 in1009.5 mb 0.06 in1.5 mm 0.60 in/hr15.2 mm/hr 0.22 in5.6 mm
06:49 AM 71.6°F22.0°C 69.8°F21.0°C 94% Calm Calm -- 29.81 in1009.5 mb 0.06 in1.5 mm 0.00 in/hr0.0 mm/hr 0.22 in5.6 mm
06:51 AM 71.6°F22.0°C 69.8°F21.0°C 94% Calm Calm -- 29.81 in1009.5 mb 0.06 in1.5 mm 0.00 in/hr0.0 mm/hr 0.22 in5.6 mm
06:53 AM 71.6°F22.0°C 69.8°F21.0°C 94% Calm Calm -- 29.81 in1009.5 mb 0.06 in1.5 mm 0.00 in/hr0.0 mm/hr 0.22 in5.6 mm
06:55 AM 71.6°F22.0°C 69.8°F21.0°C 94% Calm Calm -- 29.81 in1009.5 mb 0.06 in1.5 mm 0.00 in/hr0.0 mm/hr 0.22 in5.6 mm
06:57 AM 71.4°F21.9°C 69.6°F20.9°C 94% Calm Calm -- 29.81 in1009.5 mb 0.06 in1.5 mm 0.00 in/hr0.0 mm/hr 0.22 in5.6 mm
06:59 AM 71.8°F22.1°C 70.0°F21.1°C 94% Calm Calm -- 29.81 in1009.5 mb 0.06 in1.5 mm 0.00 in/hr0.0 mm/hr 0.24 in6.1 mm
07:01 AM 71.6°F22.0°C 69.8°F21.0°C 94% Calm Calm -- 29.81 in1009.5 mb 0.08 in2.0 mm 0.02 in/hr0.5 mm/hr 0.24 in6.1 mm
07:03 AM 71.6°F22.0°C 69.8°F21.0°C 94% Calm Calm -- 29.81 in1009.5 mb 0.08 in2.0 mm 0.00 in/hr0.0 mm/hr 0.24 in6.1 mm
07:05 AM 71.4°F21.9°C 69.6°F20.9°C 94% Calm Calm -- 29.81 in1009.5 mb 0.08 in2.0 mm 0.00 in/hr0.0 mm/hr 0.24 in6.1 mm
07:07 AM 71.6°F22.0°C 69.8°F21.0°C 94% Calm Calm -- 29.81 in1009.5 mb 0.08 in2.0 mm 0.00 in/hr0.0 mm/hr 0.24 in6.1 mm
07:09 AM 71.6°F22.0°C 69.8°F21.0°C 94% Calm Calm -- 29.81 in1009.5 mb 0.14 in3.6 mm 1.80 in/hr45.7 mm/hr 0.31 in7.9 mm
07:11 AM 71.6°F22.0°C 69.8°F21.0°C 94% Calm Calm -- 29.82 in1009.8 mb 0.14 in3.6 mm 0.00 in/hr0.0 mm/hr 0.31 in7.9 mm
07:13 AM 71.8°F22.1°C 70.0°F21.1°C 94% Calm Calm -- 29.82 in1009.8 mb 0.14 in3.6 mm 0.00 in/hr0.0 mm/hr 0.31 in7.9 mm
07:15 AM 71.8°F22.1°C 70.0°F21.1°C 94% Calm Calm -- 29.82 in1009.8 mb 0.14 in3.6 mm 0.00 in/hr0.0 mm/hr 0.31 in7.9 mm
07:17 AM 71.8°F22.1°C 70.0°F21.1°C 94% Calm Calm -- 29.82 in1009.8 mb 0.16 in4.1 mm 0.60 in/hr15.2 mm/hr 0.33 in8.4 mm
07:19 AM 71.8°F22.1°C 70.0°F21.1°C 94% Calm Calm -- 29.82 in1009.8 mb 0.16 in4.1 mm 0.00 in/hr0.0 mm/hr 0.33 in8.4 mm
07:21 AM 71.8°F22.1°C 70.0°F21.1°C 94% Calm Calm -- 29.82 in1009.8 mb 0.16 in4.1 mm 0.00 in/hr0.0 mm/hr 0.33 in8.4 mm
07:23 AM 71.8°F22.1°C 70.0°F21.1°C 94% Calm Calm -- 29.82 in1009.8 mb 0.18 in4.6 mm 0.60 in/hr15.2 mm/hr 0.35 in8.9 mm
07:25 AM 71.8°F22.1°C 70.0°F21.1°C 94% Calm Calm -- 29.82 in1009.8 mb 0.20 in5.1 mm 0.60 in/hr15.2 mm/hr 0.37 in9.4 mm
07:27 AM 71.8°F22.1°C 70.0°F21.1°C 94% Calm Calm -- 29.82 in1009.8 mb 0.20 in5.1 mm 0.00 in/hr0.0 mm/hr 0.37 in9.4 mm
07:29 AM 71.8°F22.1°C 70.0°F21.1°C 94% Calm Calm -- 29.82 in1009.8 mb 0.20 in5.1 mm 0.00 in/hr0.0 mm/hr 0.37 in9.4 mm
07:31 AM 71.8°F22.1°C 70.0°F21.1°C 94% Calm Calm -- 29.82 in1009.8 mb 0.20 in5.1 mm 0.00 in/hr0.0 mm/hr 0.37 in9.4 mm
07:33 AM 71.8°F22.1°C 70.0°F21.1°C 94% Calm Calm -- 29.82 in1009.8 mb 0.20 in5.1 mm 0.00 in/hr0.0 mm/hr 0.39 in9.9 mm
07:35 AM 71.8°F22.1°C 70.0°F21.1°C 94% Calm Calm -- 29.82 in1009.8 mb 0.22 in5.6 mm 0.60 in/hr15.2 mm/hr 0.39 in9.9 mm
07:37 AM 71.8°F22.1°C 70.0°F21.1°C 94% Calm Calm -- 29.82 in1009.8 mb 0.20 in5.1 mm 0.00 in/hr0.0 mm/hr 0.39 in9.9 mm
07:39 AM 71.8°F22.1°C 70.0°F21.1°C 94% Calm Calm -- 29.82 in1009.8 mb 0.20 in5.1 mm 0.00 in/hr0.0 mm/hr 0.39 in9.9 mm
07:41 AM 71.8°F22.1°C 70.0°F21.1°C 94% Calm Calm -- 29.82 in1009.8 mb 0.20 in5.1 mm 0.00 in/hr0.0 mm/hr 0.39 in9.9 mm
07:43 AM 71.8°F22.1°C 70.0°F21.1°C 94% Calm Calm -- 29.82 in1009.8 mb 0.20 in5.1 mm 0.00 in/hr0.0 mm/hr 0.41 in10.4 mm
07:45 AM 71.8°F22.1°C 70.0°F21.1°C 94% Calm Calm -- 29.82 in1009.8 mb 0.20 in5.1 mm 0.00 in/hr0.0 mm/hr 0.41 in10.4 mm
07:47 AM 71.8°F22.1°C 70.0°F21.1°C 94% Calm Calm -- 29.82 in1009.8 mb 0.18 in4.6 mm 0.00 in/hr0.0 mm/hr 0.41 in10.4 mm
07:49 AM 71.8°F22.1°C 70.0°F21.1°C 94% Calm Calm -- 29.82 in1009.8 mb 0.18 in4.6 mm 0.00 in/hr0.0 mm/hr 0.41 in10.4 mm
07:51 AM 71.8°F22.1°C 70.0°F21.1°C 94% Calm Calm -- 29.82 in1009.8 mb 0.18 in4.6 mm 0.00 in/hr0.0 mm/hr 0.41 in10.4 mm
07:53 AM 71.8°F22.1°C 70.0°F21.1°C 94% Calm Calm -- 29.82 in1009.8 mb 0.18 in4.6 mm 0.00 in/hr0.0 mm/hr 0.41 in10.4 mm
07:55 AM 71.8°F22.1°C 70.0°F21.1°C 94% Calm Calm -- 29.82 in1009.8 mb 0.18 in4.6 mm 0.00 in/hr0.0 mm/hr 0.41 in10.4 mm
07:57 AM 71.8°F22.1°C 70.0°F21.1°C 94% Calm Calm -- 29.82 in1009.8 mb 0.18 in4.6 mm 0.00 in/hr0.0 mm/hr 0.41 in10.4 mm
07:59 AM 71.8°F22.1°C 70.0°F21.1°C 94% Calm Calm -- 29.82 in1009.8 mb 0.16 in4.1 mm 0.00 in/hr0.0 mm/hr 0.41 in10.4 mm
08:01 AM 72.0°F22.2°C 70.1°F21.2°C 94% Calm Calm -- 29.82 in1009.8 mb 0.16 in4.1 mm 0.00 in/hr0.0 mm/hr 0.41 in10.4 mm
08:03 AM 72.0°F22.2°C 70.1°F21.2°C 94% Calm Calm -- 29.82 in1009.8 mb 0.16 in4.1 mm 0.00 in/hr0.0 mm/hr 0.41 in10.4 mm
08:05 AM 72.0°F22.2°C 70.1°F21.2°C 94% Calm Calm -- 29.82 in1009.8 mb 0.16 in4.1 mm 0.00 in/hr0.0 mm/hr 0.41 in10.4 mm
08:07 AM 72.0°F22.2°C 70.1°F21.2°C 94% Calm Calm -- 29.82 in1009.8 mb 0.10 in2.5 mm 0.00 in/hr0.0 mm/hr 0.41 in10.4 mm
08:09 AM 72.0°F22.2°C 70.1°F21.2°C 94% Calm Calm -- 29.82 in1009.8 mb 0.12 in3.0 mm 0.60 in/hr15.2 mm/hr 0.43 in10.9 mm
08:11 AM 72.1°F22.3°C 70.3°F21.3°C 94% Calm Calm -- 29.82 in1009.8 mb 0.12 in3.0 mm 0.00 in/hr0.0 mm/hr 0.43 in10.9 mm
08:13 AM 72.0°F22.2°C 70.1°F21.2°C 94% Calm Calm -- 29.82 in1009.8 mb 0.12 in3.0 mm 0.00 in/hr0.0 mm/hr 0.43 in10.9 mm
08:15 AM 72.0°F22.2°C 70.1°F21.2°C 94% Calm Calm -- 29.83 in1010.2 mb 0.12 in3.0 mm 0.00 in/hr0.0 mm/hr 0.43 in10.9 mm
08:17 AM 72.1°F22.3°C 70.3°F21.3°C 94% Calm Calm -- 29.83 in1010.2 mb 0.12 in3.0 mm 0.00 in/hr0.0 mm/hr 0.45 in11.4 mm
08:19 AM 72.1°F22.3°C 70.3°F21.3°C 94% Calm Calm -- 29.83 in1010.2 mb 0.12 in3.0 mm 0.00 in/hr0.0 mm/hr 0.45 in11.4 mm
08:21 AM 72.1°F22.3°C 70.3°F21.3°C 94% Calm Calm -- 29.83 in1010.2 mb 0.12 in3.0 mm 0.00 in/hr0.0 mm/hr 0.45 in11.4 mm
08:23 AM 72.1°F22.3°C 70.3°F21.3°C 94% Calm Calm -- 29.83 in1010.2 mb 0.10 in2.5 mm 0.00 in/hr0.0 mm/hr 0.45 in11.4 mm
08:25 AM 72.1°F22.3°C 70.3°F21.3°C 94% Calm Calm -- 29.83 in1010.2 mb 0.08 in2.0 mm 0.00 in/hr0.0 mm/hr 0.45 in11.4 mm
08:27 AM 72.3°F22.4°C 70.5°F21.4°C 94% Calm Calm -- 29.83 in1010.2 mb 0.08 in2.0 mm 0.00 in/hr0.0 mm/hr 0.45 in11.4 mm
08:29 AM 72.3°F22.4°C 70.5°F21.4°C 94% Calm Calm -- 29.83 in1010.2 mb 0.08 in2.0 mm 0.00 in/hr0.0 mm/hr 0.45 in11.4 mm
08:31 AM 72.3°F22.4°C 70.5°F21.4°C 94% Calm Calm -- 29.82 in1009.8 mb 0.08 in2.0 mm 0.00 in/hr0.0 mm/hr 0.45 in11.4 mm
08:33 AM 72.3°F22.4°C 70.5°F21.4°C 94% Calm Calm -- 29.82 in1009.8 mb 0.06 in1.5 mm 0.00 in/hr0.0 mm/hr 0.45 in11.4 mm
08:35 AM 72.3°F22.4°C 70.5°F21.4°C 94% 3.8 mph SE6.1 kmh SE 3.8 mph6.1 kmh 29.82 in1009.8 mb 0.08 in2.0 mm 0.60 in/hr15.2 mm/hr 0.47 in11.9 mm
08:37 AM 72.3°F22.4°C 70.5°F21.4°C 94% Calm Calm 3.8 mph6.1 kmh 29.82 in1009.8 mb 0.08 in2.0 mm 0.00 in/hr0.0 mm/hr 0.47 in11.9 mm
08:39 AM 72.5°F22.5°C 70.7°F21.5°C 94% Calm Calm 3.8 mph6.1 kmh 29.82 in1009.8 mb 0.08 in2.0 mm 0.00 in/hr0.0 mm/hr 0.47 in11.9 mm
08:41 AM 72.5°F22.5°C 70.7°F21.5°C 94% Calm Calm 3.8 mph6.1 kmh 29.82 in1009.8 mb 0.08 in2.0 mm 0.00 in/hr0.0 mm/hr 0.47 in11.9 mm
08:43 AM 72.5°F22.5°C 70.7°F21.5°C 94% Calm Calm 3.8 mph6.1 kmh 29.82 in1009.8 mb 0.06 in1.5 mm 0.00 in/hr0.0 mm/hr 0.47 in11.9 mm
08:45 AM 72.5°F22.5°C 70.7°F21.5°C 94% Calm Calm -- 29.83 in1010.2 mb 0.06 in1.5 mm 0.00 in/hr0.0 mm/hr 0.47 in11.9 mm
08:47 AM 72.7°F22.6°C 70.9°F21.6°C 94% Calm Calm -- 29.83 in1010.2 mb 0.06 in1.5 mm 0.00 in/hr0.0 mm/hr 0.47 in11.9 mm
08:49 AM 72.7°F22.6°C 70.9°F21.6°C 94% Calm Calm -- 29.82 in1009.8 mb 0.06 in1.5 mm 0.00 in/hr0.0 mm/hr 0.47 in11.9 mm
08:51 AM 72.7°F22.6°C 70.9°F21.6°C 94% Calm Calm -- 29.83 in1010.2 mb 0.08 in2.0 mm 0.60 in/hr15.2 mm/hr 0.49 in12.4 mm
08:53 AM 72.7°F22.6°C 70.9°F21.6°C 94% Calm Calm -- 29.83 in1010.2 mb 0.08 in2.0 mm 0.00 in/hr0.0 mm/hr 0.49 in12.4 mm
08:55 AM 72.9°F22.7°C 71.0°F21.7°C 94% Calm Calm -- 29.82 in1009.8 mb 0.08 in2.0 mm 0.00 in/hr0.0 mm/hr 0.49 in12.4 mm
08:57 AM 72.9°F22.7°C 71.0°F21.7°C 94% Calm Calm -- 29.82 in1009.8 mb 0.08 in2.0 mm 0.00 in/hr0.0 mm/hr 0.49 in12.4 mm
08:59 AM 72.9°F22.7°C 71.0°F21.7°C 94% Calm Calm -- 29.82 in1009.8 mb 0.08 in2.0 mm 0.00 in/hr0.0 mm/hr 0.49 in12.4 mm
09:01 AM 73.0°F22.8°C 71.2°F21.8°C 94% Calm Calm -- 29.83 in1010.2 mb 0.08 in2.0 mm 0.00 in/hr0.0 mm/hr 0.49 in12.4 mm
09:03 AM 73.0°F22.8°C 71.2°F21.8°C 94% 1.3 mph SE2.1 kmh SE 1.3 mph2.1 kmh 29.82 in1009.8 mb 0.08 in2.0 mm 0.00 in/hr0.0 mm/hr 0.49 in12.4 mm
09:05 AM 73.0°F22.8°C 71.2°F21.8°C 94% 1.3 mph SE2.1 kmh SE 1.3 mph2.1 kmh 29.82 in1009.8 mb 0.08 in2.0 mm 0.00 in/hr0.0 mm/hr 0.49 in12.4 mm
09:07 AM 73.0°F22.8°C 71.2°F21.8°C 94% Calm Calm 1.3 mph2.1 kmh 29.83 in1010.2 mb 0.08 in2.0 mm 0.00 in/hr0.0 mm/hr 0.49 in12.4 mm
09:09 AM 73.0°F22.8°C 71.2°F21.8°C 94% Calm Calm 1.3 mph2.1 kmh 29.82 in1009.8 mb 0.08 in2.0 mm 0.00 in/hr0.0 mm/hr 0.51 in13.0 mm
09:11 AM 73.0°F22.8°C 71.2°F21.8°C 94% Calm Calm 1.3 mph2.1 kmh 29.82 in1009.8 mb 0.08 in2.0 mm 0.00 in/hr0.0 mm/hr 0.51 in13.0 mm
09:13 AM 73.2°F22.9°C 71.4°F21.9°C 94% 4.5 mph SE7.2 kmh SE 4.5 mph7.2 kmh 29.82 in1009.8 mb 0.08 in2.0 mm 0.00 in/hr0.0 mm/hr 0.51 in13.0 mm
09:15 AM 73.2°F22.9°C 71.4°F21.9°C 94% 1.1 mph SE1.8 kmh SE 4.5 mph7.2 kmh 29.83 in1010.2 mb 0.08 in2.0 mm 0.00 in/hr0.0 mm/hr 0.51 in13.0 mm
09:17 AM 73.2°F22.9°C 71.4°F21.9°C 94% Calm Calm 4.5 mph7.2 kmh 29.83 in1010.2 mb 0.08 in2.0 mm 0.00 in/hr0.0 mm/hr 0.53 in13.5 mm
09:19 AM 73.2°F22.9°C 71.4°F21.9°C 94% Calm Calm 4.5 mph7.2 kmh 29.82 in1009.8 mb 0.08 in2.0 mm 0.00 in/hr0.0 mm/hr 0.53 in13.5 mm
09:21 AM 73.2°F22.9°C 71.4°F21.9°C 94% Calm Calm 4.5 mph7.2 kmh 29.83 in1010.2 mb 0.08 in2.0 mm 0.00 in/hr0.0 mm/hr 0.53 in13.5 mm
09:23 AM 73.2°F22.9°C 71.4°F21.9°C 94% Calm Calm 4.5 mph7.2 kmh 29.82 in1009.8 mb 0.10 in2.5 mm 0.60 in/hr15.2 mm/hr 0.55 in14.0 mm
09:25 AM 73.2°F22.9°C 71.4°F21.9°C 94% Calm Calm 1.1 mph1.8 kmh 29.83 in1010.2 mb 0.12 in3.0 mm 0.60 in/hr15.2 mm/hr 0.57 in14.5 mm
09:27 AM 73.2°F22.9°C 71.4°F21.9°C 94% Calm Calm -- 29.83 in1010.2 mb 0.12 in3.0 mm 0.00 in/hr0.0 mm/hr 0.57 in14.5 mm
09:29 AM 73.2°F22.9°C 71.4°F21.9°C 94% 3.6 mph NNE5.8 kmh NNE 3.6 mph5.8 kmh 29.83 in1010.2 mb 0.12 in3.0 mm 0.00 in/hr0.0 mm/hr 0.59 in15.0 mm
09:31 AM 73.2°F22.9°C 71.4°F21.9°C 94% Calm Calm 3.6 mph5.8 kmh 29.83 in1010.2 mb 0.14 in3.6 mm 0.60 in/hr15.2 mm/hr 0.61 in15.5 mm
09:33 AM 73.2°F22.9°C 71.4°F21.9°C 94% 3.8 mph NNE6.1 kmh NNE 3.8 mph6.1 kmh 29.83 in1010.2 mb 0.14 in3.6 mm 0.00 in/hr0.0 mm/hr 0.65 in16.5 mm
09:35 AM 73.2°F22.9°C 71.4°F21.9°C 94% 3.8 mph N6.1 kmh N 3.8 mph6.1 kmh 29.83 in1010.2 mb 0.18 in4.6 mm 1.20 in/hr30.5 mm/hr 0.65 in16.5 mm
09:37 AM 73.2°F22.9°C 71.4°F21.9°C 94% 4.3 mph N6.9 kmh N 4.3 mph6.9 kmh 29.83 in1010.2 mb 0.18 in4.6 mm 0.00 in/hr0.0 mm/hr 0.65 in16.5 mm
09:39 AM 73.2°F22.9°C 71.4°F21.9°C 94% 0.9 mph N1.4 kmh N 4.3 mph6.9 kmh 29.83 in1010.2 mb 0.18 in4.6 mm 0.00 in/hr0.0 mm/hr 0.65 in16.5 mm
09:41 AM 73.0°F22.8°C 71.2°F21.8°C 94% Calm Calm 4.3 mph6.9 kmh 29.83 in1010.2 mb 0.20 in5.1 mm 0.60 in/hr15.2 mm/hr 0.67 in17.0 mm
09:43 AM 73.0°F22.8°C 71.2°F21.8°C 94% Calm Calm 4.3 mph6.9 kmh 29.83 in1010.2 mb 0.20 in5.1 mm 0.00 in/hr0.0 mm/hr 0.67 in17.0 mm
09:45 AM 72.7°F22.6°C 70.9°F21.6°C 94% 1.1 mph N1.8 kmh N 4.3 mph6.9 kmh 29.83 in1010.2 mb 0.20 in5.1 mm 0.00 in/hr0.0 mm/hr 0.67 in17.0 mm
09:47 AM 72.5°F22.5°C 70.7°F21.5°C 94% 4.7 mph NE7.6 kmh NE 4.7 mph7.6 kmh 29.83 in1010.2 mb 0.22 in5.6 mm 0.60 in/hr15.2 mm/hr 0.69 in17.5 mm
09:49 AM 72.3°F22.4°C 70.2°F21.2°C 93% Calm Calm 4.7 mph7.6 kmh 29.83 in1010.2 mb 0.22 in5.6 mm 0.00 in/hr0.0 mm/hr 0.69 in17.5 mm
09:51 AM 72.1°F22.3°C 70.0°F21.1°C 93% Calm Calm 4.7 mph7.6 kmh 29.83 in1010.2 mb 0.22 in5.6 mm 0.00 in/hr0.0 mm/hr 0.71 in18.0 mm
09:53 AM 72.1°F22.3°C 70.0°F21.1°C 93% 1.1 mph NE1.8 kmh NE 4.7 mph7.6 kmh 29.83 in1010.2 mb 0.22 in5.6 mm 0.00 in/hr0.0 mm/hr 0.71 in18.0 mm
09:55 AM 72.0°F22.2°C 69.8°F21.0°C 93% Calm Calm 4.7 mph7.6 kmh 29.83 in1010.2 mb 0.22 in5.6 mm 0.00 in/hr0.0 mm/hr 0.71 in18.0 mm
09:57 AM 72.0°F22.2°C 69.5°F20.8°C 92% Calm Calm 4.7 mph7.6 kmh 29.83 in1010.2 mb 0.22 in5.6 mm 0.00 in/hr0.0 mm/hr 0.71 in18.0 mm
09:59 AM 72.0°F22.2°C 69.5°F20.8°C 92% 2.5 mph N4.0 kmh N 2.5 mph4.0 kmh 29.83 in1010.2 mb 0.22 in5.6 mm 0.00 in/hr0.0 mm/hr 0.71 in18.0 mm
10:01 AM 72.0°F22.2°C 69.5°F20.8°C 92% Calm Calm 2.5 mph4.0 kmh 29.83 in1010.2 mb 0.22 in5.6 mm 0.00 in/hr0.0 mm/hr 0.71 in18.0 mm
10:03 AM 71.8°F22.1°C 69.3°F20.7°C 92% Calm Calm 2.5 mph4.0 kmh 29.83 in1010.2 mb 0.22 in5.6 mm 0.00 in/hr0.0 mm/hr 0.71 in18.0 mm
10:05 AM 71.8°F22.1°C 69.3°F20.7°C 92% Calm Calm 2.5 mph4.0 kmh 29.83 in1010.2 mb 0.22 in5.6 mm 0.00 in/hr0.0 mm/hr 0.71 in18.0 mm
10:07 AM 72.0°F22.2°C 69.5°F20.8°C 92% Calm Calm 2.5 mph4.0 kmh 29.83 in1010.2 mb 0.20 in5.1 mm 0.00 in/hr0.0 mm/hr 0.71 in18.0 mm
10:09 AM 71.8°F22.1°C 69.3°F20.7°C 92% Calm Calm 2.5 mph4.0 kmh 29.83 in1010.2 mb 0.22 in5.6 mm 0.60 in/hr15.2 mm/hr 0.73 in18.5 mm
10:11 AM 71.8°F22.1°C 69.3°F20.7°C 92% Calm Calm -- 29.83 in1010.2 mb 0.22 in5.6 mm 0.00 in/hr0.0 mm/hr 0.73 in18.5 mm
10:13 AM 71.8°F22.1°C 69.3°F20.7°C 92% 1.3 mph ENE2.1 kmh ENE 1.3 mph2.1 kmh 29.83 in1010.2 mb 0.22 in5.6 mm 0.00 in/hr0.0 mm/hr 0.73 in18.5 mm
10:15 AM 71.6°F22.0°C 69.2°F20.7°C 92% 1.3 mph ENE2.1 kmh ENE 1.3 mph2.1 kmh 29.83 in1010.2 mb 0.24 in6.1 mm 0.60 in/hr15.2 mm/hr 0.75 in19.1 mm
10:17 AM 71.8°F22.1°C 69.3°F20.7°C 92% Calm Calm 1.3 mph2.1 kmh 29.83 in1010.2 mb 0.24 in6.1 mm 0.00 in/hr0.0 mm/hr 0.77 in19.6 mm
10:19 AM 71.4°F21.9°C 69.0°F20.6°C 92% Calm Calm 1.3 mph2.1 kmh 29.83 in1010.2 mb 0.24 in6.1 mm 0.00 in/hr0.0 mm/hr 0.77 in19.6 mm
10:21 AM 71.6°F22.0°C 69.2°F20.7°C 92% Calm Calm 1.3 mph2.1 kmh 29.83 in1010.2 mb 0.24 in6.1 mm 0.00 in/hr0.0 mm/hr 0.77 in19.6 mm
10:23 AM 71.6°F22.0°C 69.2°F20.7°C 92% Calm Calm 1.3 mph2.1 kmh 29.83 in1010.2 mb 0.22 in5.6 mm 0.00 in/hr0.0 mm/hr 0.77 in19.6 mm
10:25 AM 71.8°F22.1°C 69.3°F20.7°C 92% Calm Calm 1.3 mph2.1 kmh 29.83 in1010.2 mb 0.22 in5.6 mm 0.00 in/hr0.0 mm/hr 0.80 in20.3 mm
10:27 AM 71.8°F22.1°C 69.3°F20.7°C 92% Calm Calm -- 29.83 in1010.2 mb 0.22 in5.6 mm 0.00 in/hr0.0 mm/hr 0.80 in20.3 mm
10:29 AM 71.8°F22.1°C 69.3°F20.7°C 92% Calm Calm -- 29.83 in1010.2 mb 0.20 in5.1 mm 0.00 in/hr0.0 mm/hr 0.80 in20.3 mm
10:31 AM 72.0°F22.2°C 69.5°F20.8°C 92% Calm Calm -- 29.83 in1010.2 mb 0.18 in4.6 mm 0.00 in/hr0.0 mm/hr 0.80 in20.3 mm
10:33 AM 72.0°F22.2°C 69.5°F20.8°C 92% Calm Calm -- 29.83 in1010.2 mb 0.18 in4.6 mm 0.00 in/hr0.0 mm/hr 0.82 in20.8 mm
10:35 AM 72.0°F22.2°C 69.5°F20.8°C 92% Calm Calm -- 29.83 in1010.2 mb 0.16 in4.1 mm 0.00 in/hr0.0 mm/hr 0.82 in20.8 mm
10:37 AM 72.0°F22.2°C 69.5°F20.8°C 92% Calm Calm -- 29.82 in1009.8 mb 0.16 in4.1 mm 0.00 in/hr0.0 mm/hr 0.82 in20.8 mm
10:39 AM 72.1°F22.3°C 69.7°F20.9°C 92% 1.1 mph W1.8 kmh W 1.1 mph1.8 kmh 29.82 in1009.8 mb 0.14 in3.6 mm 0.00 in/hr0.0 mm/hr 0.82 in20.8 mm
10:41 AM 72.1°F22.3°C 69.7°F20.9°C 92% Calm Calm 1.1 mph1.8 kmh 29.82 in1009.8 mb 0.14 in3.6 mm 0.00 in/hr0.0 mm/hr 0.82 in20.8 mm
10:43 AM 72.1°F22.3°C 70.0°F21.1°C 93% Calm Calm 1.1 mph1.8 kmh 29.82 in1009.8 mb 0.16 in4.1 mm 0.60 in/hr15.2 mm/hr 0.84 in21.3 mm
10:45 AM 72.1°F22.3°C 70.0°F21.1°C 93% 2.5 mph WNW4.0 kmh WNW 2.5 mph4.0 kmh 29.82 in1009.8 mb 0.16 in4.1 mm 0.00 in/hr0.0 mm/hr 0.84 in21.3 mm
10:47 AM 72.1°F22.3°C 70.0°F21.1°C 93% Calm Calm 2.5 mph4.0 kmh 29.82 in1009.8 mb 0.14 in3.6 mm 0.00 in/hr0.0 mm/hr 0.84 in21.3 mm
10:49 AM 72.3°F22.4°C 70.2°F21.2°C 93% Calm Calm 2.5 mph4.0 kmh 29.82 in1009.8 mb 0.16 in4.1 mm 0.60 in/hr15.2 mm/hr 0.86 in21.8 mm
10:51 AM 72.3°F22.4°C 70.2°F21.2°C 93% Calm Calm 2.5 mph4.0 kmh 29.82 in1009.8 mb 0.16 in4.1 mm 0.00 in/hr0.0 mm/hr 0.88 in22.4 mm
10:53 AM 72.3°F22.4°C 70.2°F21.2°C 93% Calm Calm 2.5 mph4.0 kmh 29.82 in1009.8 mb 0.16 in4.1 mm 0.00 in/hr0.0 mm/hr 0.88 in22.4 mm
10:55 AM 72.5°F22.5°C 70.4°F21.3°C 93% Calm Calm 2.5 mph4.0 kmh 29.82 in1009.8 mb 0.16 in4.1 mm 0.00 in/hr0.0 mm/hr 0.88 in22.4 mm
10:57 AM 72.5°F22.5°C 70.4°F21.3°C 93% Calm Calm -- 29.82 in1009.8 mb 0.16 in4.1 mm 0.00 in/hr0.0 mm/hr 0.88 in22.4 mm
10:59 AM 72.5°F22.5°C 70.4°F21.3°C 93% Calm Calm -- 29.82 in1009.8 mb 0.16 in4.1 mm 0.00 in/hr0.0 mm/hr 0.88 in22.4 mm
11:01 AM 72.5°F22.5°C 70.4°F21.3°C 93% Calm Calm -- 29.81 in1009.5 mb 0.16 in4.1 mm 0.00 in/hr0.0 mm/hr 0.88 in22.4 mm
11:03 AM 72.5°F22.5°C 70.4°F21.3°C 93% Calm Calm -- 29.81 in1009.5 mb 0.16 in4.1 mm 0.00 in/hr0.0 mm/hr 0.88 in22.4 mm
11:05 AM 72.5°F22.5°C 70.4°F21.3°C 93% Calm Calm -- 29.81 in1009.5 mb 0.16 in4.1 mm 0.00 in/hr0.0 mm/hr 0.88 in22.4 mm
11:07 AM 72.5°F22.5°C 70.4°F21.3°C 93% Calm Calm -- 29.81 in1009.5 mb 0.14 in3.6 mm 0.00 in/hr0.0 mm/hr 0.88 in22.4 mm
11:09 AM 72.5°F22.5°C 70.4°F21.3°C 93% Calm Calm -- 29.81 in1009.5 mb 0.14 in3.6 mm 0.00 in/hr0.0 mm/hr 0.88 in22.4 mm
11:11 AM 72.7°F22.6°C 70.5°F21.4°C 93% Calm Calm -- 29.81 in1009.5 mb 0.14 in3.6 mm 0.00 in/hr0.0 mm/hr 0.88 in22.4 mm
11:13 AM 72.7°F22.6°C 70.5°F21.4°C 93% Calm Calm -- 29.81 in1009.5 mb 0.14 in3.6 mm 0.00 in/hr0.0 mm/hr 0.88 in22.4 mm
11:15 AM 72.7°F22.6°C 70.5°F21.4°C 93% Calm Calm -- 29.81 in1009.5 mb 0.12 in3.0 mm 0.00 in/hr0.0 mm/hr 0.88 in22.4 mm
11:17 AM 72.7°F22.6°C 70.5°F21.4°C 93% Calm Calm -- 29.81 in1009.5 mb 0.10 in2.5 mm 0.00 in/hr0.0 mm/hr 0.88 in22.4 mm
11:19 AM 72.7°F22.6°C 70.5°F21.4°C 93% Calm Calm -- 29.81 in1009.5 mb 0.10 in2.5 mm 0.00 in/hr0.0 mm/hr 0.88 in22.4 mm
11:21 AM 72.7°F22.6°C 70.5°F21.4°C 93% Calm Calm -- 29.81 in1009.5 mb 0.10 in2.5 mm 0.00 in/hr0.0 mm/hr 0.88 in22.4 mm
11:23 AM 72.7°F22.6°C 70.5°F21.4°C 93% Calm Calm -- 29.81 in1009.5 mb 0.10 in2.5 mm 0.00 in/hr0.0 mm/hr 0.88 in22.4 mm
11:25 AM 72.7°F22.6°C 70.5°F21.4°C 93% Calm Calm -- 29.80 in1009.1 mb 0.10 in2.5 mm 0.00 in/hr0.0 mm/hr 0.90 in22.9 mm
11:27 AM 72.7°F22.6°C 70.5°F21.4°C 93% Calm Calm -- 29.80 in1009.1 mb 0.10 in2.5 mm 0.00 in/hr0.0 mm/hr 0.90 in22.9 mm
11:29 AM 72.7°F22.6°C 70.5°F21.4°C 93% Calm Calm -- 29.80 in1009.1 mb 0.10 in2.5 mm 0.00 in/hr0.0 mm/hr 0.90 in22.9 mm
11:31 AM 72.7°F22.6°C 70.5°F21.4°C 93% Calm Calm -- 29.80 in1009.1 mb 0.10 in2.5 mm 0.00 in/hr0.0 mm/hr 0.90 in22.9 mm
11:33 AM 72.7°F22.6°C 70.5°F21.4°C 93% Calm Calm -- 29.80 in1009.1 mb 0.08 in2.0 mm 0.00 in/hr0.0 mm/hr 0.92 in23.4 mm
11:35 AM 72.7°F22.6°C 70.5°F21.4°C 93% Calm Calm -- 29.80 in1009.1 mb 0.10 in2.5 mm 0.60 in/hr15.2 mm/hr 0.92 in23.4 mm
11:37 AM 72.9°F22.7°C 70.7°F21.5°C 93% Calm Calm -- 29.80 in1009.1 mb 0.10 in2.5 mm 0.00 in/hr0.0 mm/hr 0.92 in23.4 mm
11:39 AM 73.0°F22.8°C 70.9°F21.6°C 93% Calm Calm -- 29.80 in1009.1 mb 0.10 in2.5 mm 0.00 in/hr0.0 mm/hr 0.92 in23.4 mm
11:41 AM 73.0°F22.8°C 70.9°F21.6°C 93% Calm Calm -- 29.80 in1009.1 mb 0.10 in2.5 mm 0.00 in/hr0.0 mm/hr 0.92 in23.4 mm
11:43 AM 73.0°F22.8°C 70.9°F21.6°C 93% Calm Calm -- 29.80 in1009.1 mb 0.08 in2.0 mm 0.00 in/hr0.0 mm/hr 0.92 in23.4 mm
11:45 AM 73.0°F22.8°C 70.9°F21.6°C 93% Calm Calm -- 29.80 in1009.1 mb 0.08 in2.0 mm 0.00 in/hr0.0 mm/hr 0.92 in23.4 mm
11:47 AM 73.2°F22.9°C 71.1°F21.7°C 93% Calm Calm -- 29.80 in1009.1 mb 0.08 in2.0 mm 0.00 in/hr0.0 mm/hr 0.92 in23.4 mm
11:49 AM 73.2°F22.9°C 71.1°F21.7°C 93% Calm Calm -- 29.80 in1009.1 mb 0.06 in1.5 mm 0.00 in/hr0.0 mm/hr 0.92 in23.4 mm
11:51 AM 73.2°F22.9°C 71.1°F21.7°C 93% Calm Calm -- 29.80 in1009.1 mb 0.04 in1.0 mm 0.00 in/hr0.0 mm/hr 0.92 in23.4 mm
11:53 AM 73.2°F22.9°C 71.1°F21.7°C 93% Calm Calm -- 29.80 in1009.1 mb 0.04 in1.0 mm 0.00 in/hr0.0 mm/hr 0.92 in23.4 mm
11:55 AM 73.4°F23.0°C 71.3°F21.8°C 93% Calm Calm -- 29.80 in1009.1 mb 0.04 in1.0 mm 0.00 in/hr0.0 mm/hr 0.92 in23.4 mm
11:57 AM 73.6°F23.1°C 71.4°F21.9°C 93% Calm Calm -- 29.79 in1008.8 mb 0.04 in1.0 mm 0.00 in/hr0.0 mm/hr 0.92 in23.4 mm
11:59 AM 73.6°F23.1°C 71.4°F21.9°C 93% Calm Calm -- 29.79 in1008.8 mb 0.04 in1.0 mm 0.00 in/hr0.0 mm/hr 0.92 in23.4 mm
12:01 PM 73.6°F23.1°C 71.4°F21.9°C 93% Calm Calm -- 29.79 in1008.8 mb 0.04 in1.0 mm 0.00 in/hr0.0 mm/hr 0.92 in23.4 mm
12:03 PM 73.8°F23.2°C 71.6°F22.0°C 93% Calm Calm -- 29.79 in1008.8 mb 0.04 in1.0 mm 0.00 in/hr0.0 mm/hr 0.92 in23.4 mm
12:05 PM 73.8°F23.2°C 71.6°F22.0°C 93% Calm Calm -- 29.79 in1008.8 mb 0.04 in1.0 mm 0.00 in/hr0.0 mm/hr 0.92 in23.4 mm
12:07 PM 73.8°F23.2°C 71.6°F22.0°C 93% Calm Calm -- 29.79 in1008.8 mb 0.04 in1.0 mm 0.00 in/hr0.0 mm/hr 0.92 in23.4 mm
12:09 PM 73.9°F23.3°C 71.8°F22.1°C 93% Calm Calm -- 29.80 in1009.1 mb 0.04 in1.0 mm 0.00 in/hr0.0 mm/hr 0.92 in23.4 mm
12:11 PM 73.9°F23.3°C 71.8°F22.1°C 93% Calm Calm -- 29.79 in1008.8 mb 0.04 in1.0 mm 0.00 in/hr0.0 mm/hr 0.92 in23.4 mm
12:13 PM 73.9°F23.3°C 71.8°F22.1°C 93% Calm Calm -- 29.79 in1008.8 mb 0.04 in1.0 mm 0.00 in/hr0.0 mm/hr 0.92 in23.4 mm
12:15 PM 74.1°F23.4°C 72.0°F22.2°C 93% Calm Calm -- 29.79 in1008.8 mb 0.04 in1.0 mm 0.00 in/hr0.0 mm/hr 0.92 in23.4 mm
12:17 PM 74.1°F23.4°C 72.0°F22.2°C 93% Calm Calm -- 29.79 in1008.8 mb 0.04 in1.0 mm 0.00 in/hr0.0 mm/hr 0.92 in23.4 mm
12:19 PM 74.1°F23.4°C 72.0°F22.2°C 93% Calm Calm -- 29.79 in1008.8 mb 0.04 in1.0 mm 0.00 in/hr0.0 mm/hr 0.92 in23.4 mm
12:21 PM 74.1°F23.4°C 72.0°F22.2°C 93% Calm Calm -- 29.79 in1008.8 mb 0.04 in1.0 mm 0.00 in/hr0.0 mm/hr 0.92 in23.4 mm
12:23 PM 74.3°F23.5°C 72.1°F22.3°C 93% Calm Calm -- 29.79 in1008.8 mb 0.04 in1.0 mm 0.00 in/hr0.0 mm/hr 0.92 in23.4 mm
12:25 PM 74.3°F23.5°C 72.1°F22.3°C 93% Calm Calm -- 29.79 in1008.8 mb 0.04 in1.0 mm 0.00 in/hr0.0 mm/hr 0.94 in23.9 mm
12:27 PM 74.3°F23.5°C 72.1°F22.3°C 93% Calm Calm -- 29.79 in1008.8 mb 0.04 in1.0 mm 0.00 in/hr0.0 mm/hr 0.94 in23.9 mm
12:29 PM 74.3°F23.5°C 72.1°F22.3°C 93% 3.1 mph N5.0 kmh N 3.1 mph5.0 kmh 29.79 in1008.8 mb 0.04 in1.0 mm 0.00 in/hr0.0 mm/hr 0.94 in23.9 mm
12:31 PM 74.5°F23.6°C 72.3°F22.4°C 93% Calm Calm 3.1 mph5.0 kmh 29.79 in1008.8 mb 0.04 in1.0 mm 0.00 in/hr0.0 mm/hr 0.94 in23.9 mm
12:33 PM 74.5°F23.6°C 72.3°F22.4°C 93% Calm Calm 3.1 mph5.0 kmh 29.78 in1008.5 mb 0.02 in0.5 mm 0.00 in/hr0.0 mm/hr 0.94 in23.9 mm
12:35 PM 74.5°F23.6°C 72.3°F22.4°C 93% Calm Calm 3.1 mph5.0 kmh 29.78 in1008.5 mb 0.02 in0.5 mm 0.00 in/hr0.0 mm/hr 0.94 in23.9 mm
12:37 PM 74.5°F23.6°C 72.6°F22.6°C 94% Calm Calm 3.1 mph5.0 kmh 29.79 in1008.8 mb 0.02 in0.5 mm 0.00 in/hr0.0 mm/hr 0.94 in23.9 mm
12:39 PM 74.5°F23.6°C 72.3°F22.4°C 93% Calm Calm 3.1 mph5.0 kmh 29.79 in1008.8 mb 0.02 in0.5 mm 0.00 in/hr0.0 mm/hr 0.94 in23.9 mm
12:41 PM 74.5°F23.6°C 72.6°F22.6°C 94% Calm Calm -- 29.79 in1008.8 mb 0.02 in0.5 mm 0.00 in/hr0.0 mm/hr 0.94 in23.9 mm
12:43 PM 74.5°F23.6°C 72.6°F22.6°C 94% Calm Calm -- 29.78 in1008.5 mb 0.02 in0.5 mm 0.00 in/hr0.0 mm/hr 0.94 in23.9 mm
12:45 PM 74.5°F23.6°C 72.3°F22.4°C 93% Calm Calm -- 29.78 in1008.5 mb 0.02 in0.5 mm 0.00 in/hr0.0 mm/hr 0.94 in23.9 mm
12:47 PM 74.5°F23.6°C 72.3°F22.4°C 93% 3.1 mph SSE5.0 kmh SSE 3.1 mph5.0 kmh 29.78 in1008.5 mb 0.02 in0.5 mm 0.00 in/hr0.0 mm/hr 0.94 in23.9 mm
12:49 PM 74.5°F23.6°C 72.3°F22.4°C 93% Calm Calm 3.1 mph5.0 kmh 29.78 in1008.5 mb 0.02 in0.5 mm 0.00 in/hr0.0 mm/hr 0.94 in23.9 mm
12:51 PM 74.5°F23.6°C 72.3°F22.4°C 93% Calm Calm 3.1 mph5.0 kmh 29.78 in1008.5 mb 0.02 in0.5 mm 0.00 in/hr0.0 mm/hr 0.94 in23.9 mm
12:53 PM 74.8°F23.8°C 72.7°F22.6°C 93% Calm Calm 3.1 mph5.0 kmh 29.78 in1008.5 mb 0.02 in0.5 mm 0.00 in/hr0.0 mm/hr 0.94 in23.9 mm
12:55 PM 74.8°F23.8°C 72.7°F22.6°C 93% Calm Calm 3.1 mph5.0 kmh 29.78 in1008.5 mb 0.02 in0.5 mm 0.00 in/hr0.0 mm/hr 0.94 in23.9 mm
12:57 PM 74.8°F23.8°C 72.7°F22.6°C 93% 4.3 mph ESE6.9 kmh ESE 4.3 mph6.9 kmh 29.78 in1008.5 mb 0.02 in0.5 mm 0.00 in/hr0.0 mm/hr 0.94 in23.9 mm
12:59 PM 74.8°F23.8°C 72.7°F22.6°C 93% 0.9 mph ENE1.4 kmh ENE 4.3 mph6.9 kmh 29.78 in1008.5 mb 0.02 in0.5 mm 0.00 in/hr0.0 mm/hr 0.96 in24.4 mm
01:01 PM 74.8°F23.8°C 72.7°F22.6°C 93% Calm Calm 4.3 mph6.9 kmh 29.78 in1008.5 mb 0.04 in1.0 mm 0.02 in/hr0.5 mm/hr 0.96 in24.4 mm
01:03 PM 74.8°F23.8°C 72.7°F22.6°C 93% 4.0 mph ENE6.4 kmh ENE 4.3 mph6.9 kmh 29.78 in1008.5 mb 0.04 in1.0 mm 0.00 in/hr0.0 mm/hr 0.96 in24.4 mm
01:05 PM 74.8°F23.8°C 72.7°F22.6°C 93% 4.0 mph NE6.4 kmh NE 4.3 mph6.9 kmh 29.78 in1008.5 mb 0.04 in1.0 mm 0.00 in/hr0.0 mm/hr 0.96 in24.4 mm
01:07 PM 74.7°F23.7°C 72.5°F22.5°C 93% 2.0 mph NE3.2 kmh NE 4.3 mph6.9 kmh 29.78 in1008.5 mb 0.04 in1.0 mm 0.00 in/hr0.0 mm/hr 0.96 in24.4 mm
01:09 PM 74.5°F23.6°C 72.3°F22.4°C 93% Calm Calm 4.0 mph6.4 kmh 29.78 in1008.5 mb 0.08 in2.0 mm 1.20 in/hr30.5 mm/hr 1.00 in25.4 mm
01:11 PM 74.5°F23.6°C 72.3°F22.4°C 93% Calm Calm 4.0 mph6.4 kmh 29.78 in1008.5 mb 0.08 in2.0 mm 0.00 in/hr0.0 mm/hr 1.00 in25.4 mm
01:13 PM 74.5°F23.6°C 72.3°F22.4°C 93% Calm Calm 4.0 mph6.4 kmh 29.78 in1008.5 mb 0.08 in2.0 mm 0.00 in/hr0.0 mm/hr 1.00 in25.4 mm
01:15 PM 74.5°F23.6°C 72.3°F22.4°C 93% Calm Calm 4.0 mph6.4 kmh 29.78 in1008.5 mb 0.08 in2.0 mm 0.00 in/hr0.0 mm/hr 1.00 in25.4 mm
01:17 PM 74.5°F23.6°C 72.3°F22.4°C 93% Calm Calm 2.0 mph3.2 kmh 29.77 in1008.1 mb 0.08 in2.0 mm 0.00 in/hr0.0 mm/hr 1.00 in25.4 mm
01:19 PM 74.5°F23.6°C 72.3°F22.4°C 93% Calm Calm -- 29.77 in1008.1 mb 0.08 in2.0 mm 0.00 in/hr0.0 mm/hr 1.00 in25.4 mm
01:21 PM 74.7°F23.7°C 72.5°F22.5°C 93% Calm Calm -- 29.77 in1008.1 mb 0.08 in2.0 mm 0.00 in/hr0.0 mm/hr 1.00 in25.4 mm
01:23 PM 74.7°F23.7°C 72.2°F22.3°C 92% Calm Calm -- 29.77 in1008.1 mb 0.08 in2.0 mm 0.00 in/hr0.0 mm/hr 1.00 in25.4 mm
01:25 PM 74.7°F23.7°C 72.2°F22.3°C 92% Calm Calm -- 29.78 in1008.5 mb 0.06 in1.5 mm 0.00 in/hr0.0 mm/hr 1.00 in25.4 mm
01:27 PM 74.7°F23.7°C 72.2°F22.3°C 92% 2.0 mph N3.2 kmh N 2.0 mph3.2 kmh 29.78 in1008.5 mb 0.06 in1.5 mm 0.00 in/hr0.0 mm/hr 1.00 in25.4 mm
01:29 PM 74.7°F23.7°C 72.2°F22.3°C 92% 2.5 mph N4.0 kmh N 2.5 mph4.0 kmh 29.78 in1008.5 mb 0.06 in1.5 mm 0.00 in/hr0.0 mm/hr 1.00 in25.4 mm
01:31 PM 74.7°F23.7°C 72.2°F22.3°C 92% 1.8 mph NE2.9 kmh NE 2.5 mph4.0 kmh 29.78 in1008.5 mb 0.06 in1.5 mm 0.00 in/hr0.0 mm/hr 1.00 in25.4 mm
01:33 PM 74.5°F23.6°C 72.0°F22.2°C 92% 3.4 mph NE5.5 kmh NE 3.4 mph5.5 kmh 29.78 in1008.5 mb 0.06 in1.5 mm 0.00 in/hr0.0 mm/hr 1.02 in25.9 mm
01:35 PM 74.5°F23.6°C 72.0°F22.2°C 92% 3.4 mph NE5.5 kmh NE 3.4 mph5.5 kmh 29.78 in1008.5 mb 0.08 in2.0 mm 0.60 in/hr15.2 mm/hr 1.02 in25.9 mm
01:37 PM 74.5°F23.6°C 72.0°F22.2°C 92% 0.2 mph NE0.3 kmh NE 3.4 mph5.5 kmh 29.78 in1008.5 mb 0.08 in2.0 mm 0.00 in/hr0.0 mm/hr 1.02 in25.9 mm
01:39 PM 74.3°F23.5°C 71.8°F22.1°C 92% Calm Calm 3.4 mph5.5 kmh 29.78 in1008.5 mb 0.08 in2.0 mm 0.00 in/hr0.0 mm/hr 1.02 in25.9 mm
01:41 PM 74.3°F23.5°C 71.8°F22.1°C 92% Calm Calm 3.4 mph5.5 kmh 29.78 in1008.5 mb 0.08 in2.0 mm 0.00 in/hr0.0 mm/hr 1.02 in25.9 mm
01:43 PM 74.3°F23.5°C 71.8°F22.1°C 92% 5.4 mph NNE8.7 kmh NNE 5.4 mph8.7 kmh 29.78 in1008.5 mb 0.08 in2.0 mm 0.00 in/hr0.0 mm/hr 1.02 in25.9 mm
01:45 PM 74.1°F23.4°C 71.6°F22.0°C 92% Calm Calm 5.4 mph8.7 kmh 29.78 in1008.5 mb 0.08 in2.0 mm 0.00 in/hr0.0 mm/hr 1.02 in25.9 mm
01:47 PM 74.1°F23.4°C 71.6°F22.0°C 92% 4.3 mph NNE6.9 kmh NNE 5.4 mph8.7 kmh 29.78 in1008.5 mb 0.08 in2.0 mm 0.00 in/hr0.0 mm/hr 1.02 in25.9 mm
01:49 PM 74.1°F23.4°C 71.6°F22.0°C 92% 1.6 mph N2.6 kmh N 5.4 mph8.7 kmh 29.78 in1008.5 mb 0.08 in2.0 mm 0.00 in/hr0.0 mm/hr 1.02 in25.9 mm
01:51 PM 74.1°F23.4°C 71.6°F22.0°C 92% Calm Calm 5.4 mph8.7 kmh 29.78 in1008.5 mb 0.08 in2.0 mm 0.00 in/hr0.0 mm/hr 1.02 in25.9 mm
01:53 PM 73.9°F23.3°C 71.5°F21.9°C 92% 6.5 mph N10.5 kmh N 6.5 mph10.5 kmh 29.78 in1008.5 mb 0.08 in2.0 mm 0.00 in/hr0.0 mm/hr 1.02 in25.9 mm
01:55 PM 74.1°F23.4°C 71.6°F22.0°C 92% 5.4 mph N8.7 kmh N 6.5 mph10.5 kmh 29.78 in1008.5 mb 0.08 in2.0 mm 0.00 in/hr0.0 mm/hr 1.02 in25.9 mm
01:57 PM 74.1°F23.4°C 71.6°F22.0°C 92% 2.9 mph N4.7 kmh N 6.5 mph10.5 kmh 29.78 in1008.5 mb 0.08 in2.0 mm 0.00 in/hr0.0 mm/hr 1.02 in25.9 mm
01:59 PM 74.1°F23.4°C 71.6°F22.0°C 92% 2.9 mph N4.7 kmh N 6.5 mph10.5 kmh 29.78 in1008.5 mb 0.06 in1.5 mm 0.00 in/hr0.0 mm/hr 1.04 in26.4 mm
02:01 PM 74.3°F23.5°C 71.8°F22.1°C 92% Calm Calm 6.5 mph10.5 kmh 29.78 in1008.5 mb 0.08 in2.0 mm 0.02 in/hr0.5 mm/hr 1.04 in26.4 mm
02:03 PM 74.3°F23.5°C 71.8°F22.1°C 92% Calm Calm 6.5 mph10.5 kmh 29.77 in1008.1 mb 0.08 in2.0 mm 0.00 in/hr0.0 mm/hr 1.04 in26.4 mm
02:05 PM 74.3°F23.5°C 71.8°F22.1°C 92% Calm Calm 5.4 mph8.7 kmh 29.77 in1008.1 mb 0.08 in2.0 mm 0.00 in/hr0.0 mm/hr 1.04 in26.4 mm
02:07 PM 74.3°F23.5°C 71.8°F22.1°C 92% Calm Calm 2.9 mph4.7 kmh 29.77 in1008.1 mb 0.04 in1.0 mm 0.00 in/hr0.0 mm/hr 1.04 in26.4 mm
02:09 PM 74.5°F23.6°C 72.0°F22.2°C 92% Calm Calm 2.9 mph4.7 kmh 29.77 in1008.1 mb 0.04 in1.0 mm 0.00 in/hr0.0 mm/hr 1.04 in26.4 mm
02:11 PM 74.5°F23.6°C 72.0°F22.2°C 92% Calm Calm -- 29.77 in1008.1 mb 0.04 in1.0 mm 0.00 in/hr0.0 mm/hr 1.04 in26.4 mm
02:13 PM 74.7°F23.7°C 72.2°F22.3°C 92% Calm Calm -- 29.77 in1008.1 mb 0.04 in1.0 mm 0.00 in/hr0.0 mm/hr 1.04 in26.4 mm
02:15 PM 74.8°F23.8°C 72.4°F22.4°C 92% Calm Calm -- 29.77 in1008.1 mb 0.04 in1.0 mm 0.00 in/hr0.0 mm/hr 1.04 in26.4 mm
02:17 PM 74.8°F23.8°C 72.4°F22.4°C 92% 2.9 mph NE4.7 kmh NE 2.9 mph4.7 kmh 29.77 in1008.1 mb 0.04 in1.0 mm 0.00 in/hr0.0 mm/hr 1.04 in26.4 mm
02:19 PM 75.0°F23.9°C 72.5°F22.5°C 92% Calm Calm 2.9 mph4.7 kmh 29.77 in1008.1 mb 0.04 in1.0 mm 0.00 in/hr0.0 mm/hr 1.04 in26.4 mm
02:21 PM 75.0°F23.9°C 72.5°F22.5°C 92% Calm Calm 2.9 mph4.7 kmh 29.77 in1008.1 mb 0.04 in1.0 mm 0.00 in/hr0.0 mm/hr 1.04 in26.4 mm
02:23 PM 75.0°F23.9°C 72.5°F22.5°C 92% Calm Calm 2.9 mph4.7 kmh 29.77 in1008.1 mb 0.04 in1.0 mm 0.00 in/hr0.0 mm/hr 1.04 in26.4 mm
02:25 PM 75.0°F23.9°C 72.5°F22.5°C 92% 1.1 mph NE1.8 kmh NE 2.9 mph4.7 kmh 29.77 in1008.1 mb 0.04 in1.0 mm 0.00 in/hr0.0 mm/hr 1.04 in26.4 mm
02:27 PM 75.4°F24.1°C 72.9°F22.7°C 92% Calm Calm 2.9 mph4.7 kmh 29.77 in1008.1 mb 0.04 in1.0 mm 0.00 in/hr0.0 mm/hr 1.04 in26.4 mm
02:29 PM 75.4°F24.1°C 72.9°F22.7°C 92% Calm Calm 1.1 mph1.8 kmh 29.77 in1008.1 mb 0.04 in1.0 mm 0.00 in/hr0.0 mm/hr 1.04 in26.4 mm
02:31 PM 75.4°F24.1°C 72.6°F22.6°C 91% 3.6 mph E5.8 kmh E 3.6 mph5.8 kmh 29.77 in1008.1 mb 0.04 in1.0 mm 0.00 in/hr0.0 mm/hr 1.04 in26.4 mm
02:33 PM 75.4°F24.1°C 72.6°F22.6°C 91% Calm Calm 3.6 mph5.8 kmh 29.77 in1008.1 mb 0.02 in0.5 mm 0.00 in/hr0.0 mm/hr 1.04 in26.4 mm
02:35 PM 75.4°F24.1°C 72.6°F22.6°C 91% Calm Calm 3.6 mph5.8 kmh 29.77 in1008.1 mb 0.02 in0.5 mm 0.00 in/hr0.0 mm/hr 1.04 in26.4 mm
02:37 PM 75.4°F24.1°C 72.6°F22.6°C 91% Calm Calm 3.6 mph5.8 kmh 29.77 in1008.1 mb 0.02 in0.5 mm 0.00 in/hr0.0 mm/hr 1.04 in26.4 mm
02:39 PM 75.4°F24.1°C 72.6°F22.6°C 91% Calm Calm 3.6 mph5.8 kmh 29.76 in1007.8 mb 0.02 in0.5 mm 0.00 in/hr0.0 mm/hr 1.04 in26.4 mm
02:41 PM 75.4°F24.1°C 72.6°F22.6°C 91% Calm Calm 3.6 mph5.8 kmh 29.76 in1007.8 mb 0.02 in0.5 mm 0.00 in/hr0.0 mm/hr 1.04 in26.4 mm
02:43 PM 75.4°F24.1°C 72.6°F22.6°C 91% Calm Calm -- 29.76 in1007.8 mb 0.02 in0.5 mm 0.00 in/hr0.0 mm/hr 1.04 in26.4 mm
02:45 PM 75.4°F24.1°C 72.6°F22.6°C 91% Calm Calm -- 29.76 in1007.8 mb 0.02 in0.5 mm 0.00 in/hr0.0 mm/hr 1.04 in26.4 mm
02:47 PM 75.6°F24.2°C 72.7°F22.6°C 91% Calm Calm -- 29.76 in1007.8 mb 0.02 in0.5 mm 0.00 in/hr0.0 mm/hr 1.04 in26.4 mm
02:49 PM 75.6°F24.2°C 72.7°F22.6°C 91% Calm Calm -- 29.76 in1007.8 mb 0.02 in0.5 mm 0.00 in/hr0.0 mm/hr 1.04 in26.4 mm
02:51 PM 75.7°F24.3°C 72.9°F22.7°C 91% 1.8 mph NE2.9 kmh NE 1.8 mph2.9 kmh 29.76 in1007.8 mb 0.02 in0.5 mm 0.00 in/hr0.0 mm/hr 1.04 in26.4 mm
02:53 PM 75.7°F24.3°C 72.9°F22.7°C 91% Calm Calm 1.8 mph2.9 kmh 29.76 in1007.8 mb 0.02 in0.5 mm 0.00 in/hr0.0 mm/hr 1.04 in26.4 mm
02:55 PM 75.7°F24.3°C 72.9°F22.7°C 91% Calm Calm 1.8 mph2.9 kmh 29.76 in1007.8 mb 0.02 in0.5 mm 0.00 in/hr0.0 mm/hr 1.04 in26.4 mm
02:57 PM 75.7°F24.3°C 72.6°F22.6°C 90% Calm Calm 1.8 mph2.9 kmh 29.76 in1007.8 mb 0.02 in0.5 mm 0.00 in/hr0.0 mm/hr 1.04 in26.4 mm
02:59 PM 75.7°F24.3°C 72.9°F22.7°C 91% Calm Calm 1.8 mph2.9 kmh 29.76 in1007.8 mb 0.00 in0.0 mm 0.00 in/hr0.0 mm/hr 1.04 in26.4 mm
03:01 PM 75.7°F24.3°C 72.9°F22.7°C 91% 2.0 mph ENE3.2 kmh ENE 2.0 mph3.2 kmh 29.76 in1007.8 mb 0.00 in0.0 mm 0.00 in/hr0.0 mm/hr 1.04 in26.4 mm
03:03 PM 75.7°F24.3°C 72.9°F22.7°C 91% Calm Calm 2.0 mph3.2 kmh 29.76 in1007.8 mb 0.00 in0.0 mm 0.00 in/hr0.0 mm/hr 1.04 in26.4 mm
03:05 PM 75.7°F24.3°C 72.9°F22.7°C 91% Calm Calm 2.0 mph3.2 kmh 29.75 in1007.5 mb 0.00 in0.0 mm 0.00 in/hr0.0 mm/hr 1.04 in26.4 mm
03:07 PM 75.7°F24.3°C 72.9°F22.7°C 91% Calm Calm 2.0 mph3.2 kmh 29.75 in1007.5 mb 0.00 in0.0 mm 0.00 in/hr0.0 mm/hr 1.04 in26.4 mm
03:09 PM 75.7°F24.3°C 72.9°F22.7°C 91% Calm Calm 2.0 mph3.2 kmh 29.75 in1007.5 mb 0.00 in0.0 mm 0.00 in/hr0.0 mm/hr 1.04 in26.4 mm
03:11 PM 75.9°F24.4°C 73.1°F22.8°C 91% Calm Calm 2.0 mph3.2 kmh 29.75 in1007.5 mb 0.00 in0.0 mm 0.00 in/hr0.0 mm/hr 1.04 in26.4 mm
03:13 PM 75.9°F24.4°C 73.1°F22.8°C 91% 0.7 mph NE1.1 kmh NE 0.7 mph1.1 kmh 29.76 in1007.8 mb 0.00 in0.0 mm 0.00 in/hr0.0 mm/hr 1.04 in26.4 mm
03:15 PM 75.9°F24.4°C 73.1°F22.8°C 91% Calm Calm 0.7 mph1.1 kmh 29.75 in1007.5 mb 0.00 in0.0 mm 0.00 in/hr0.0 mm/hr 1.04 in26.4 mm
03:17 PM 75.9°F24.4°C 72.8°F22.7°C 90% 7.2 mph ENE11.6 kmh ENE 7.2 mph11.6 kmh 29.75 in1007.5 mb 0.00 in0.0 mm 0.00 in/hr0.0 mm/hr 1.04 in26.4 mm
03:19 PM 75.9°F24.4°C 72.8°F22.7°C 90% 0.7 mph ENE1.1 kmh ENE 7.2 mph11.6 kmh 29.75 in1007.5 mb 0.00 in0.0 mm 0.00 in/hr0.0 mm/hr 1.04 in26.4 mm
03:21 PM 76.3°F24.6°C 73.1°F22.8°C 90% 3.8 mph ENE6.1 kmh ENE 7.2 mph11.6 kmh 29.75 in1007.5 mb 0.00 in0.0 mm 0.00 in/hr0.0 mm/hr 1.04 in26.4 mm
03:23 PM 76.3°F24.6°C 73.1°F22.8°C 90% 3.4 mph ENE5.5 kmh ENE 7.2 mph11.6 kmh 29.75 in1007.5 mb 0.00 in0.0 mm 0.00 in/hr0.0 mm/hr 1.04 in26.4 mm
03:25 PM 76.3°F24.6°C 73.1°F22.8°C 90% 3.4 mph NE5.5 kmh NE 7.2 mph11.6 kmh 29.76 in1007.8 mb 0.00 in0.0 mm 0.00 in/hr0.0 mm/hr 1.04 in26.4 mm
03:27 PM 76.5°F24.7°C 73.0°F22.8°C 89% 4.3 mph ENE6.9 kmh ENE 7.2 mph11.6 kmh 29.75 in1007.5 mb 0.00 in0.0 mm 0.00 in/hr0.0 mm/hr 1.04 in26.4 mm
03:29 PM 76.5°F24.7°C 73.0°F22.8°C 89% 2.0 mph ENE3.2 kmh ENE 4.3 mph6.9 kmh 29.76 in1007.8 mb 0.00 in0.0 mm 0.00 in/hr0.0 mm/hr 1.04 in26.4 mm
03:31 PM 76.6°F24.8°C 73.2°F22.9°C 89% 2.9 mph E4.7 kmh E 4.3 mph6.9 kmh 29.75 in1007.5 mb 0.00 in0.0 mm 0.00 in/hr0.0 mm/hr 1.04 in26.4 mm
03:33 PM 76.6°F24.8°C 73.2°F22.9°C 89% Calm Calm 4.3 mph6.9 kmh 29.76 in1007.8 mb 0.00 in0.0 mm 0.00 in/hr0.0 mm/hr 1.04 in26.4 mm
03:35 PM 76.8°F24.9°C 73.3°F22.9°C 89% Calm Calm 4.3 mph6.9 kmh 29.75 in1007.5 mb 0.00 in0.0 mm 0.00 in/hr0.0 mm/hr 1.04 in26.4 mm
03:37 PM 76.8°F24.9°C 73.3°F22.9°C 89% Calm Calm 4.3 mph6.9 kmh 29.75 in1007.5 mb 0.00 in0.0 mm 0.00 in/hr0.0 mm/hr 1.04 in26.4 mm
03:39 PM 76.8°F24.9°C 73.3°F22.9°C 89% 4.7 mph NE7.6 kmh NE 4.7 mph7.6 kmh 29.75 in1007.5 mb 0.00 in0.0 mm 0.00 in/hr0.0 mm/hr 1.04 in26.4 mm
03:41 PM 76.8°F24.9°C 73.3°F22.9°C 89% 4.0 mph ENE6.4 kmh ENE 4.7 mph7.6 kmh 29.76 in1007.8 mb 0.00 in0.0 mm 0.00 in/hr0.0 mm/hr 1.04 in26.4 mm
03:43 PM 76.8°F24.9°C 73.3°F22.9°C 89% 6.7 mph E10.8 kmh E 6.7 mph10.8 kmh 29.75 in1007.5 mb 0.00 in0.0 mm 0.00 in/hr0.0 mm/hr 1.04 in26.4 mm
03:45 PM 76.8°F24.9°C 73.0°F22.8°C 88% 5.6 mph E9.0 kmh E 6.7 mph10.8 kmh 29.76 in1007.8 mb 0.00 in0.0 mm 0.00 in/hr0.0 mm/hr 1.04 in26.4 mm
03:47 PM 76.8°F24.9°C 73.0°F22.8°C 88% 4.0 mph ENE6.4 kmh ENE 6.7 mph10.8 kmh 29.76 in1007.8 mb 0.00 in0.0 mm 0.00 in/hr0.0 mm/hr 1.04 in26.4 mm
03:49 PM 76.8°F24.9°C 73.0°F22.8°C 88% 4.0 mph ENE6.4 kmh ENE 6.7 mph10.8 kmh 29.75 in1007.5 mb 0.00 in0.0 mm 0.00 in/hr0.0 mm/hr 1.04 in26.4 mm
03:51 PM 77.0°F25.0°C 72.8°F22.7°C 87% 3.8 mph ENE6.1 kmh ENE 6.7 mph10.8 kmh 29.75 in1007.5 mb 0.00 in0.0 mm 0.00 in/hr0.0 mm/hr 1.04 in26.4 mm
03:53 PM 76.8°F24.9°C 72.7°F22.6°C 87% 3.6 mph NE5.8 kmh NE 6.7 mph10.8 kmh 29.75 in1007.5 mb 0.00 in0.0 mm 0.00 in/hr0.0 mm/hr 1.04 in26.4 mm
03:55 PM 76.8°F24.9°C 72.7°F22.6°C 87% 1.8 mph ENE2.9 kmh ENE 5.6 mph9.0 kmh 29.75 in1007.5 mb 0.00 in0.0 mm 0.00 in/hr0.0 mm/hr 1.04 in26.4 mm
03:57 PM 76.8°F24.9°C 72.7°F22.6°C 87% 3.4 mph ENE5.5 kmh ENE 4.0 mph6.4 kmh 29.75 in1007.5 mb 0.00 in0.0 mm 0.00 in/hr0.0 mm/hr 1.04 in26.4 mm
03:59 PM 77.0°F25.0°C 72.8°F22.7°C 87% 2.0 mph E3.2 kmh E 4.0 mph6.4 kmh 29.75 in1007.5 mb 0.00 in0.0 mm 0.00 in/hr0.0 mm/hr 1.04 in26.4 mm
04:01 PM 77.0°F25.0°C 72.8°F22.7°C 87% 2.0 mph E3.2 kmh E 3.8 mph6.1 kmh 29.75 in1007.5 mb 0.00 in0.0 mm 0.00 in/hr0.0 mm/hr 1.04 in26.4 mm
04:03 PM 77.0°F25.0°C 72.8°F22.7°C 87% 2.0 mph E3.2 kmh E 3.6 mph5.8 kmh 29.75 in1007.5 mb 0.00 in0.0 mm 0.00 in/hr0.0 mm/hr 1.04 in26.4 mm
04:05 PM 77.0°F25.0°C 72.8°F22.7°C 87% 7.4 mph E11.9 kmh E 7.4 mph11.9 kmh 29.75 in1007.5 mb 0.00 in0.0 mm 0.00 in/hr0.0 mm/hr 1.04 in26.4 mm
04:07 PM 77.0°F25.0°C 72.8°F22.7°C 87% 7.4 mph ENE11.9 kmh ENE 7.4 mph11.9 kmh 29.75 in1007.5 mb 0.00 in0.0 mm 0.00 in/hr0.0 mm/hr 1.04 in26.4 mm
04:09 PM 77.0°F25.0°C 72.8°F22.7°C 87% 3.6 mph ENE5.8 kmh ENE 7.4 mph11.9 kmh 29.75 in1007.5 mb 0.00 in0.0 mm 0.00 in/hr0.0 mm/hr 1.04 in26.4 mm
04:11 PM 77.2°F25.1°C 73.0°F22.8°C 87% 6.0 mph E9.7 kmh E 7.4 mph11.9 kmh 29.76 in1007.8 mb 0.00 in0.0 mm 0.00 in/hr0.0 mm/hr 1.04 in26.4 mm
04:13 PM 77.2°F25.1°C 73.0°F22.8°C 87% 1.3 mph E2.1 kmh E 7.4 mph11.9 kmh 29.75 in1007.5 mb 0.00 in0.0 mm 0.00 in/hr0.0 mm/hr 1.04 in26.4 mm
04:15 PM 77.2°F25.1°C 73.0°F22.8°C 87% 1.8 mph E2.9 kmh E 7.4 mph11.9 kmh 29.76 in1007.8 mb 0.00 in0.0 mm 0.00 in/hr0.0 mm/hr 1.04 in26.4 mm
04:17 PM 77.2°F25.1°C 73.0°F22.8°C 87% 4.7 mph E7.6 kmh E 7.4 mph11.9 kmh 29.75 in1007.5 mb 0.00 in0.0 mm 0.00 in/hr0.0 mm/hr 1.04 in26.4 mm
04:19 PM 77.2°F25.1°C 73.0°F22.8°C 87% 3.4 mph E5.5 kmh E 6.0 mph9.7 kmh 29.76 in1007.8 mb 0.00 in0.0 mm 0.00 in/hr0.0 mm/hr 1.04 in26.4 mm
04:21 PM 77.2°F25.1°C 73.0°F22.8°C 87% 3.1 mph E5.0 kmh E 6.0 mph9.7 kmh 29.75 in1007.5 mb 0.00 in0.0 mm 0.00 in/hr0.0 mm/hr 1.04 in26.4 mm
04:23 PM 77.2°F25.1°C 73.0°F22.8°C 87% 3.8 mph E6.1 kmh E 4.7 mph7.6 kmh 29.75 in1007.5 mb 0.00 in0.0 mm 0.00 in/hr0.0 mm/hr 1.04 in26.4 mm
04:25 PM 77.2°F25.1°C 73.0°F22.8°C 87% 2.9 mph E4.7 kmh E 57.3 mph92.2 kmh 29.75 in1007.5 mb 0.00 in0.0 mm 0.00 in/hr0.0 mm/hr 1.04 in26.4 mm
04:27 PM 77.2°F25.1°C 73.0°F22.8°C 87% 4.3 mph E6.9 kmh E 57.3 mph92.2 kmh 29.75 in1007.5 mb 0.00 in0.0 mm 0.00 in/hr0.0 mm/hr 1.04 in26.4 mm
04:29 PM 77.2°F25.1°C 73.0°F22.8°C 87% 4.3 mph ENE6.9 kmh ENE 57.3 mph92.2 kmh 29.76 in1007.8 mb 0.00 in0.0 mm 0.00 in/hr0.0 mm/hr 1.04 in26.4 mm
04:31 PM 77.2°F25.1°C 73.0°F22.8°C 87% 5.6 mph ENE9.0 kmh ENE 57.3 mph92.2 kmh 29.76 in1007.8 mb 0.00 in0.0 mm 0.00 in/hr0.0 mm/hr 1.04 in26.4 mm
04:33 PM 77.4°F25.2°C 72.8°F22.7°C 86% 3.4 mph ENE5.5 kmh ENE 57.3 mph92.2 kmh 29.76 in1007.8 mb 0.00 in0.0 mm 0.00 in/hr0.0 mm/hr 1.04 in26.4 mm
04:35 PM 77.4°F25.2°C 72.8°F22.7°C 86% 4.7 mph ENE7.6 kmh ENE 5.6 mph9.0 kmh 29.76 in1007.8 mb 0.00 in0.0 mm 0.00 in/hr0.0 mm/hr 1.04 in26.4 mm
04:37 PM 77.4°F25.2°C 72.8°F22.7°C 86% 4.7 mph E7.6 kmh E 5.6 mph9.0 kmh 29.76 in1007.8 mb 0.00 in0.0 mm 0.00 in/hr0.0 mm/hr 1.04 in26.4 mm
04:39 PM 77.4°F25.2°C 72.8°F22.7°C 86% 2.7 mph E4.3 kmh E 5.6 mph9.0 kmh 29.76 in1007.8 mb 0.00 in0.0 mm 0.00 in/hr0.0 mm/hr 1.04 in26.4 mm
04:41 PM 77.4°F25.2°C 72.8°F22.7°C 86% 2.7 mph ENE4.3 kmh ENE 5.6 mph9.0 kmh 29.76 in1007.8 mb 0.00 in0.0 mm 0.00 in/hr0.0 mm/hr 1.04 in26.4 mm
04:43 PM 77.4°F25.2°C 72.8°F22.7°C 86% Calm Calm 4.7 mph7.6 kmh 29.76 in1007.8 mb 0.00 in0.0 mm 0.00 in/hr0.0 mm/hr 1.04 in26.4 mm
04:45 PM 77.5°F25.3°C 73.0°F22.8°C 86% 0.7 mph ENE1.1 kmh ENE 4.7 mph7.6 kmh 29.76 in1007.8 mb 0.00 in0.0 mm 0.00 in/hr0.0 mm/hr 1.04 in26.4 mm
04:47 PM 77.4°F25.2°C 72.8°F22.7°C 86% 5.8 mph ENE9.3 kmh ENE 5.8 mph9.3 kmh 29.76 in1007.8 mb 0.00 in0.0 mm 0.00 in/hr0.0 mm/hr 1.04 in26.4 mm
04:49 PM 77.5°F25.3°C 73.0°F22.8°C 86% Calm Calm 5.8 mph9.3 kmh 29.76 in1007.8 mb 0.00 in0.0 mm 0.00 in/hr0.0 mm/hr 1.04 in26.4 mm
04:51 PM 77.5°F25.3°C 73.0°F22.8°C 86% 4.5 mph E7.2 kmh E 5.8 mph9.3 kmh 29.76 in1007.8 mb 0.00 in0.0 mm 0.00 in/hr0.0 mm/hr 1.04 in26.4 mm
04:53 PM 77.4°F25.2°C 72.8°F22.7°C 86% 3.8 mph ENE6.1 kmh ENE 5.8 mph9.3 kmh 29.76 in1007.8 mb 0.00 in0.0 mm 0.00 in/hr0.0 mm/hr 1.04 in26.4 mm
04:55 PM 77.4°F25.2°C 72.8°F22.7°C 86% Calm Calm 5.8 mph9.3 kmh 29.76 in1007.8 mb 0.00 in0.0 mm 0.00 in/hr0.0 mm/hr 1.04 in26.4 mm
04:57 PM 77.4°F25.2°C 72.8°F22.7°C 86% Calm Calm 5.8 mph9.3 kmh 29.76 in1007.8 mb 0.00 in0.0 mm 0.00 in/hr0.0 mm/hr 1.04 in26.4 mm
04:59 PM 77.4°F25.2°C 72.8°F22.7°C 86% Calm Calm 4.5 mph7.2 kmh 29.76 in1007.8 mb 0.00 in0.0 mm 0.00 in/hr0.0 mm/hr 1.04 in26.4 mm
05:01 PM 77.4°F25.2°C 72.5°F22.5°C 85% 6.5 mph NE10.5 kmh NE 6.5 mph10.5 kmh 29.76 in1007.8 mb 0.00 in0.0 mm 0.00 in/hr0.0 mm/hr 1.04 in26.4 mm
05:03 PM 77.4°F25.2°C 72.5°F22.5°C 85% 3.4 mph ENE5.5 kmh ENE 6.5 mph10.5 kmh 29.77 in1008.1 mb 0.00 in0.0 mm 0.00 in/hr0.0 mm/hr 1.04 in26.4 mm
05:05 PM 77.4°F25.2°C 72.5°F22.5°C 85% 3.4 mph E5.5 kmh E 6.5 mph10.5 kmh 29.77 in1008.1 mb 0.00 in0.0 mm 0.00 in/hr0.0 mm/hr 1.04 in26.4 mm
05:07 PM 77.4°F25.2°C 72.5°F22.5°C 85% 3.4 mph E5.5 kmh E 6.5 mph10.5 kmh 29.76 in1007.8 mb 0.00 in0.0 mm 0.00 in/hr0.0 mm/hr 1.04 in26.4 mm
05:09 PM 77.4°F25.2°C 72.8°F22.7°C 86% 4.0 mph E6.4 kmh E 6.5 mph10.5 kmh 29.76 in1007.8 mb 0.00 in0.0 mm 0.00 in/hr0.0 mm/hr 1.04 in26.4 mm
05:11 PM 77.4°F25.2°C 72.5°F22.5°C 85% 3.1 mph E5.0 kmh E 6.5 mph10.5 kmh 29.76 in1007.8 mb 0.00 in0.0 mm 0.00 in/hr0.0 mm/hr 1.04 in26.4 mm
05:13 PM 77.4°F25.2°C 72.5°F22.5°C 85% 7.4 mph E11.9 kmh E 7.4 mph11.9 kmh 29.76 in1007.8 mb 0.00 in0.0 mm 0.00 in/hr0.0 mm/hr 1.04 in26.4 mm
05:15 PM 77.2°F25.1°C 72.7°F22.6°C 86% 1.3 mph E2.1 kmh E 7.4 mph11.9 kmh 29.76 in1007.8 mb 0.00 in0.0 mm 0.00 in/hr0.0 mm/hr 1.04 in26.4 mm
05:17 PM 77.2°F25.1°C 72.7°F22.6°C 86% 1.3 mph E2.1 kmh E 7.4 mph11.9 kmh 29.76 in1007.8 mb 0.00 in0.0 mm 0.00 in/hr0.0 mm/hr 1.04 in26.4 mm
05:19 PM 77.4°F25.2°C 72.8°F22.7°C 86% 6.0 mph ENE9.7 kmh ENE 7.4 mph11.9 kmh 29.76 in1007.8 mb 0.00 in0.0 mm 0.00 in/hr0.0 mm/hr 1.04 in26.4 mm
05:21 PM 77.4°F25.2°C 72.8°F22.7°C 86% 3.4 mph ENE5.5 kmh ENE 7.4 mph11.9 kmh 29.77 in1008.1 mb 0.00 in0.0 mm 0.00 in/hr0.0 mm/hr 1.04 in26.4 mm
05:23 PM 77.4°F25.2°C 72.8°F22.7°C 86% 1.1 mph ENE1.8 kmh ENE 7.4 mph11.9 kmh 29.77 in1008.1 mb 0.00 in0.0 mm 0.00 in/hr0.0 mm/hr 1.04 in26.4 mm
05:25 PM 77.4°F25.2°C 72.8°F22.7°C 86% Calm Calm 6.0 mph9.7 kmh 29.77 in1008.1 mb 0.00 in0.0 mm 0.00 in/hr0.0 mm/hr 1.04 in26.4 mm
05:27 PM 77.4°F25.2°C 72.8°F22.7°C 86% 7.4 mph E11.9 kmh E 7.4 mph11.9 kmh 29.76 in1007.8 mb 0.00 in0.0 mm 0.00 in/hr0.0 mm/hr 1.04 in26.4 mm
05:29 PM 77.4°F25.2°C 72.8°F22.7°C 86% 2.2 mph E3.5 kmh E 7.4 mph11.9 kmh 29.77 in1008.1 mb 0.00 in0.0 mm 0.00 in/hr0.0 mm/hr 1.04 in26.4 mm
05:31 PM 77.4°F25.2°C 72.8°F22.7°C 86% 4.7 mph ESE7.6 kmh ESE 7.4 mph11.9 kmh 29.76 in1007.8 mb 0.00 in0.0 mm 0.00 in/hr0.0 mm/hr 1.04 in26.4 mm
05:33 PM 77.4°F25.2°C 72.8°F22.7°C 86% 4.3 mph E6.9 kmh E 7.4 mph11.9 kmh 29.76 in1007.8 mb 0.00 in0.0 mm 0.00 in/hr0.0 mm/hr 1.04 in26.4 mm
05:35 PM 77.5°F25.3°C 73.0°F22.8°C 86% 2.9 mph E4.7 kmh E 7.4 mph11.9 kmh 29.76 in1007.8 mb 0.00 in0.0 mm 0.00 in/hr0.0 mm/hr 1.04 in26.4 mm
05:37 PM 77.5°F25.3°C 73.0°F22.8°C 86% 2.9 mph E4.7 kmh E 7.4 mph11.9 kmh 29.77 in1008.1 mb 0.00 in0.0 mm 0.00 in/hr0.0 mm/hr 1.04 in26.4 mm
05:39 PM 77.5°F25.3°C 73.0°F22.8°C 86% 2.9 mph ENE4.7 kmh ENE 4.7 mph7.6 kmh 29.77 in1008.1 mb 0.00 in0.0 mm 0.00 in/hr0.0 mm/hr 1.04 in26.4 mm
05:41 PM 77.5°F25.3°C 73.0°F22.8°C 86% 2.9 mph ENE4.7 kmh ENE 4.7 mph7.6 kmh 29.76 in1007.8 mb 0.00 in0.0 mm 0.00 in/hr0.0 mm/hr 1.04 in26.4 mm
05:43 PM 77.4°F25.2°C 72.8°F22.7°C 86% 6.3 mph NE10.1 kmh NE 6.3 mph10.1 kmh 29.76 in1007.8 mb 0.00 in0.0 mm 0.00 in/hr0.0 mm/hr 1.04 in26.4 mm
05:45 PM 77.4°F25.2°C 72.8°F22.7°C 86% 2.7 mph NE4.3 kmh NE 6.3 mph10.1 kmh 29.76 in1007.8 mb 0.00 in0.0 mm 0.00 in/hr0.0 mm/hr 1.04 in26.4 mm
05:47 PM 77.4°F25.2°C 72.8°F22.7°C 86% 3.8 mph NE6.1 kmh NE 6.3 mph10.1 kmh 29.77 in1008.1 mb 0.00 in0.0 mm 0.00 in/hr0.0 mm/hr 1.04 in26.4 mm
05:49 PM 77.4°F25.2°C 72.8°F22.7°C 86% 7.2 mph NE11.6 kmh NE 7.2 mph11.6 kmh 29.76 in1007.8 mb 0.00 in0.0 mm 0.00 in/hr0.0 mm/hr 1.04 in26.4 mm
05:51 PM 77.4°F25.2°C 72.8°F22.7°C 86% 4.7 mph NE7.6 kmh NE 7.2 mph11.6 kmh 29.76 in1007.8 mb 0.00 in0.0 mm 0.00 in/hr0.0 mm/hr 1.04 in26.4 mm
05:53 PM 77.4°F25.2°C 72.8°F22.7°C 86% 3.4 mph NE5.5 kmh NE 7.2 mph11.6 kmh 29.77 in1008.1 mb 0.00 in0.0 mm 0.00 in/hr0.0 mm/hr 1.04 in26.4 mm
05:55 PM 77.4°F25.2°C 72.8°F22.7°C 86% 2.2 mph NE3.5 kmh NE 7.2 mph11.6 kmh 29.77 in1008.1 mb 0.00 in0.0 mm 0.00 in/hr0.0 mm/hr 1.04 in26.4 mm
05:57 PM 77.4°F25.2°C 72.8°F22.7°C 86% 0.9 mph NE1.4 kmh NE 7.2 mph11.6 kmh 29.77 in1008.1 mb 0.00 in0.0 mm 0.00 in/hr0.0 mm/hr 1.04 in26.4 mm
05:59 PM 77.4°F25.2°C 72.8°F22.7°C 86% 1.8 mph NE2.9 kmh NE 7.2 mph11.6 kmh 29.77 in1008.1 mb 0.00 in0.0 mm 0.00 in/hr0.0 mm/hr 1.04 in26.4 mm
06:01 PM 77.4°F25.2°C 72.8°F22.7°C 86% 3.4 mph NNE5.5 kmh NNE 4.7 mph7.6 kmh 29.77 in1008.1 mb 0.00 in0.0 mm 0.00 in/hr0.0 mm/hr 1.04 in26.4 mm
06:03 PM 77.2°F25.1°C 72.7°F22.6°C 86% Calm Calm 3.4 mph5.5 kmh 29.77 in1008.1 mb 0.00 in0.0 mm 0.00 in/hr0.0 mm/hr 1.04 in26.4 mm
06:05 PM 77.4°F25.2°C 72.8°F22.7°C 86% 6.0 mph NE9.7 kmh NE 6.0 mph9.7 kmh 29.77 in1008.1 mb 0.00 in0.0 mm 0.00 in/hr0.0 mm/hr 1.04 in26.4 mm
06:07 PM 77.2°F25.1°C 72.7°F22.6°C 86% 6.0 mph NNW9.7 kmh NNW 6.0 mph9.7 kmh 29.77 in1008.1 mb 0.00 in0.0 mm 0.00 in/hr0.0 mm/hr 1.04 in26.4 mm
06:09 PM 77.2°F25.1°C 72.7°F22.6°C 86% 5.8 mph N9.3 kmh N 6.0 mph9.7 kmh 29.77 in1008.1 mb 0.00 in0.0 mm 0.00 in/hr0.0 mm/hr 1.04 in26.4 mm
06:11 PM 77.2°F25.1°C 72.7°F22.6°C 86% 1.1 mph N1.8 kmh N 6.0 mph9.7 kmh 29.77 in1008.1 mb 0.00 in0.0 mm 0.00 in/hr0.0 mm/hr 1.04 in26.4 mm
06:13 PM 77.2°F25.1°C 72.7°F22.6°C 86% 7.2 mph N11.6 kmh N 7.2 mph11.6 kmh 29.77 in1008.1 mb 0.00 in0.0 mm 0.00 in/hr0.0 mm/hr 1.04 in26.4 mm
06:15 PM 77.2°F25.1°C 72.7°F22.6°C 86% 6.9 mph NE11.1 kmh NE 7.2 mph11.6 kmh 29.77 in1008.1 mb 0.00 in0.0 mm 0.00 in/hr0.0 mm/hr 1.04 in26.4 mm
06:17 PM 77.2°F25.1°C 72.7°F22.6°C 86% 4.0 mph ENE6.4 kmh ENE 7.2 mph11.6 kmh 29.77 in1008.1 mb 0.00 in0.0 mm 0.00 in/hr0.0 mm/hr 1.04 in26.4 mm
06:19 PM 77.2°F25.1°C 72.7°F22.6°C 86% 0.9 mph ENE1.4 kmh ENE 7.2 mph11.6 kmh 29.77 in1008.1 mb 0.00 in0.0 mm 0.00 in/hr0.0 mm/hr 1.04 in26.4 mm
06:21 PM 77.2°F25.1°C 72.7°F22.6°C 86% 5.6 mph ENE9.0 kmh ENE 7.2 mph11.6 kmh 29.78 in1008.5 mb 0.00 in0.0 mm 0.00 in/hr0.0 mm/hr 1.04 in26.4 mm
06:23 PM 77.0°F25.0°C 72.5°F22.5°C 86% Calm Calm 7.2 mph11.6 kmh 29.77 in1008.1 mb 0.00 in0.0 mm 0.00 in/hr0.0 mm/hr 1.04 in26.4 mm
06:25 PM 77.0°F25.0°C 72.5°F22.5°C 86% 4.5 mph NE7.2 kmh NE 6.9 mph11.1 kmh 29.77 in1008.1 mb 0.00 in0.0 mm 0.00 in/hr0.0 mm/hr 1.04 in26.4 mm
06:27 PM 77.0°F25.0°C 72.5°F22.5°C 86% 1.3 mph NE2.1 kmh NE 5.6 mph9.0 kmh 29.78 in1008.5 mb 0.00 in0.0 mm 0.00 in/hr0.0 mm/hr 1.04 in26.4 mm
06:29 PM 76.8°F24.9°C 72.3°F22.4°C 86% 2.0 mph NE3.2 kmh NE 5.6 mph9.0 kmh 29.78 in1008.5 mb 0.00 in0.0 mm 0.00 in/hr0.0 mm/hr 1.04 in26.4 mm
06:31 PM 76.8°F24.9°C 72.3°F22.4°C 86% 6.0 mph ENE9.7 kmh ENE 6.0 mph9.7 kmh 29.78 in1008.5 mb 0.00 in0.0 mm 0.00 in/hr0.0 mm/hr 1.04 in26.4 mm
06:33 PM 76.8°F24.9°C 72.7°F22.6°C 87% 2.0 mph ENE3.2 kmh ENE 6.0 mph9.7 kmh 29.78 in1008.5 mb 0.00 in0.0 mm 0.00 in/hr0.0 mm/hr 1.04 in26.4 mm
06:35 PM 76.8°F24.9°C 72.7°F22.6°C 87% 2.0 mph ENE3.2 kmh ENE 6.0 mph9.7 kmh 29.78 in1008.5 mb 0.00 in0.0 mm 0.00 in/hr0.0 mm/hr 1.04 in26.4 mm
06:37 PM 76.8°F24.9°C 72.7°F22.6°C 87% Calm Calm 6.0 mph9.7 kmh 29.78 in1008.5 mb 0.00 in0.0 mm 0.00 in/hr0.0 mm/hr 1.04 in26.4 mm
06:39 PM 76.8°F24.9°C 72.7°F22.6°C 87% Calm Calm 6.0 mph9.7 kmh 29.78 in1008.5 mb 0.00 in0.0 mm 0.00 in/hr0.0 mm/hr 1.04 in26.4 mm
06:41 PM 76.8°F24.9°C 72.7°F22.6°C 87% 0.9 mph NE1.4 kmh NE 6.0 mph9.7 kmh 29.78 in1008.5 mb 0.00 in0.0 mm 0.00 in/hr0.0 mm/hr 1.04 in26.4 mm
06:43 PM 76.8°F24.9°C 72.7°F22.6°C 87% 3.1 mph NE5.0 kmh NE 3.1 mph5.0 kmh 29.78 in1008.5 mb 0.00 in0.0 mm 0.00 in/hr0.0 mm/hr 1.04 in26.4 mm
06:45 PM 76.8°F24.9°C 72.7°F22.6°C 87% 3.1 mph NE5.0 kmh NE 3.1 mph5.0 kmh 29.78 in1008.5 mb 0.00 in0.0 mm 0.00 in/hr0.0 mm/hr 1.04 in26.4 mm
06:47 PM 76.8°F24.9°C 72.7°F22.6°C 87% 3.1 mph NE5.0 kmh NE 3.1 mph5.0 kmh 29.78 in1008.5 mb 0.00 in0.0 mm 0.00 in/hr0.0 mm/hr 1.04 in26.4 mm
06:49 PM 76.8°F24.9°C 72.7°F22.6°C 87% 6.5 mph NE10.5 kmh NE 6.5 mph10.5 kmh 29.78 in1008.5 mb 0.00 in0.0 mm 0.00 in/hr0.0 mm/hr 1.04 in26.4 mm
06:51 PM 76.6°F24.8°C 72.5°F22.5°C 87% Calm Calm 6.5 mph10.5 kmh 29.78 in1008.5 mb 0.00 in0.0 mm 0.00 in/hr0.0 mm/hr 1.04 in26.4 mm
06:53 PM 76.6°F24.8°C 72.5°F22.5°C 87% Calm Calm 6.5 mph10.5 kmh 29.78 in1008.5 mb 0.00 in0.0 mm 0.00 in/hr0.0 mm/hr 1.04 in26.4 mm
06:55 PM 76.6°F24.8°C 72.5°F22.5°C 87% Calm Calm 6.5 mph10.5 kmh 29.78 in1008.5 mb 0.00 in0.0 mm 0.00 in/hr0.0 mm/hr 1.04 in26.4 mm
06:57 PM 76.6°F24.8°C 72.5°F22.5°C 87% Calm Calm 6.5 mph10.5 kmh 29.78 in1008.5 mb 0.00 in0.0 mm 0.00 in/hr0.0 mm/hr 1.04 in26.4 mm
06:59 PM 76.6°F24.8°C 72.5°F22.5°C 87% 1.8 mph NE2.9 kmh NE 6.5 mph10.5 kmh 29.78 in1008.5 mb 0.00 in0.0 mm 0.00 in/hr0.0 mm/hr 1.04 in26.4 mm
07:01 PM 76.6°F24.8°C 72.5°F22.5°C 87% 2.9 mph E4.7 kmh E 2.9 mph4.7 kmh 29.78 in1008.5 mb 0.00 in0.0 mm 0.00 in/hr0.0 mm/hr 1.04 in26.4 mm
07:03 PM 76.5°F24.7°C 72.3°F22.4°C 87% Calm Calm 2.9 mph4.7 kmh 29.79 in1008.8 mb 0.00 in0.0 mm 0.00 in/hr0.0 mm/hr 1.04 in26.4 mm
07:05 PM 76.5°F24.7°C 72.3°F22.4°C 87% Calm Calm 2.9 mph4.7 kmh 29.79 in1008.8 mb 0.00 in0.0 mm 0.00 in/hr0.0 mm/hr 1.04 in26.4 mm
07:07 PM 76.3°F24.6°C 72.1°F22.3°C 87% 0.7 mph NE1.1 kmh NE 2.9 mph4.7 kmh 29.79 in1008.8 mb 0.00 in0.0 mm 0.00 in/hr0.0 mm/hr 1.04 in26.4 mm
07:09 PM 76.3°F24.6°C 72.1°F22.3°C 87% 0.7 mph NE1.1 kmh NE 2.9 mph4.7 kmh 29.79 in1008.8 mb 0.00 in0.0 mm 0.00 in/hr0.0 mm/hr 1.04 in26.4 mm
07:11 PM 76.3°F24.6°C 72.1°F22.3°C 87% 2.7 mph NNE4.3 kmh NNE 2.9 mph4.7 kmh 29.78 in1008.5 mb 0.00 in0.0 mm 0.00 in/hr0.0 mm/hr 1.04 in26.4 mm
07:13 PM 76.3°F24.6°C 72.1°F22.3°C 87% Calm Calm 2.7 mph4.3 kmh 29.79 in1008.8 mb 0.00 in0.0 mm 0.00 in/hr0.0 mm/hr 1.04 in26.4 mm
07:15 PM 76.3°F24.6°C 72.1°F22.3°C 87% Calm Calm 2.7 mph4.3 kmh 29.79 in1008.8 mb 0.00 in0.0 mm 0.00 in/hr0.0 mm/hr 1.04 in26.4 mm
07:17 PM 76.3°F24.6°C 72.1°F22.3°C 87% 0.9 mph NE1.4 kmh NE 2.7 mph4.3 kmh 29.79 in1008.8 mb 0.00 in0.0 mm 0.00 in/hr0.0 mm/hr 1.04 in26.4 mm
07:19 PM 76.3°F24.6°C 72.1°F22.3°C 87% Calm Calm 2.7 mph4.3 kmh 29.79 in1008.8 mb 0.00 in0.0 mm 0.00 in/hr0.0 mm/hr 1.04 in26.4 mm
07:21 PM 76.3°F24.6°C 72.1°F22.3°C 87% Calm Calm 2.7 mph4.3 kmh 29.79 in1008.8 mb 0.00 in0.0 mm 0.00 in/hr0.0 mm/hr 1.04 in26.4 mm
07:23 PM 76.3°F24.6°C 72.1°F22.3°C 87% 1.6 mph ENE2.6 kmh ENE 1.6 mph2.6 kmh 29.79 in1008.8 mb 0.00 in0.0 mm 0.00 in/hr0.0 mm/hr 1.04 in26.4 mm
07:25 PM 76.3°F24.6°C 72.1°F22.3°C 87% 2.7 mph E4.3 kmh E 2.7 mph4.3 kmh 29.79 in1008.8 mb 0.00 in0.0 mm 0.00 in/hr0.0 mm/hr 1.04 in26.4 mm
07:27 PM 76.3°F24.6°C 72.1°F22.3°C 87% Calm Calm 2.7 mph4.3 kmh 29.79 in1008.8 mb 0.00 in0.0 mm 0.00 in/hr0.0 mm/hr 1.04 in26.4 mm
07:29 PM 76.3°F24.6°C 72.1°F22.3°C 87% Calm Calm 2.7 mph4.3 kmh 29.79 in1008.8 mb 0.00 in0.0 mm 0.00 in/hr0.0 mm/hr 1.04 in26.4 mm
07:31 PM 76.1°F24.5°C 71.9°F22.2°C 87% 2.9 mph E4.7 kmh E 2.9 mph4.7 kmh 29.79 in1008.8 mb 0.00 in0.0 mm 0.00 in/hr0.0 mm/hr 1.04 in26.4 mm
07:33 PM 76.1°F24.5°C 72.3°F22.4°C 88% Calm Calm 2.9 mph4.7 kmh 29.79 in1008.8 mb 0.00 in0.0 mm 0.00 in/hr0.0 mm/hr 1.04 in26.4 mm
07:35 PM 76.3°F24.6°C 72.5°F22.5°C 88% 3.1 mph NE5.0 kmh NE 3.1 mph5.0 kmh 29.79 in1008.8 mb 0.00 in0.0 mm 0.00 in/hr0.0 mm/hr 1.04 in26.4 mm
07:37 PM 76.1°F24.5°C 72.3°F22.4°C 88% 4.5 mph N7.2 kmh N 4.5 mph7.2 kmh 29.79 in1008.8 mb 0.00 in0.0 mm 0.00 in/hr0.0 mm/hr 1.04 in26.4 mm
07:39 PM 76.1°F24.5°C 72.3°F22.4°C 88% 4.5 mph NNE7.2 kmh NNE 4.5 mph7.2 kmh 29.79 in1008.8 mb 0.00 in0.0 mm 0.00 in/hr0.0 mm/hr 1.04 in26.4 mm
07:41 PM 76.1°F24.5°C 72.3°F22.4°C 88% 6.9 mph NE11.1 kmh NE 6.9 mph11.1 kmh 29.79 in1008.8 mb 0.00 in0.0 mm 0.00 in/hr0.0 mm/hr 1.04 in26.4 mm
07:43 PM 76.1°F24.5°C 72.3°F22.4°C 88% 2.7 mph NE4.3 kmh NE 6.9 mph11.1 kmh 29.79 in1008.8 mb 0.00 in0.0 mm 0.00 in/hr0.0 mm/hr 1.04 in26.4 mm
07:45 PM 76.1°F24.5°C 72.3°F22.4°C 88% Calm Calm 6.9 mph11.1 kmh 29.79 in1008.8 mb 0.00 in0.0 mm 0.00 in/hr0.0 mm/hr 1.04 in26.4 mm
07:47 PM 76.1°F24.5°C 72.3°F22.4°C 88% Calm Calm 6.9 mph11.1 kmh 29.80 in1009.1 mb 0.00 in0.0 mm 0.00 in/hr0.0 mm/hr 1.04 in26.4 mm
07:49 PM 76.1°F24.5°C 72.3°F22.4°C 88% Calm Calm 6.9 mph11.1 kmh 29.80 in1009.1 mb 0.00 in0.0 mm 0.00 in/hr0.0 mm/hr 1.04 in26.4 mm
07:51 PM 76.1°F24.5°C 72.3°F22.4°C 88% Calm Calm 6.9 mph11.1 kmh 29.80 in1009.1 mb 0.00 in0.0 mm 0.00 in/hr0.0 mm/hr 1.04 in26.4 mm
07:53 PM 75.9°F24.4°C 72.1°F22.3°C 88% 1.3 mph NE2.1 kmh NE 2.7 mph4.3 kmh 29.80 in1009.1 mb 0.00 in0.0 mm 0.00 in/hr0.0 mm/hr 1.04 in26.4 mm
07:55 PM 75.9°F24.4°C 72.1°F22.3°C 88% 3.1 mph NE5.0 kmh NE 3.1 mph5.0 kmh 29.80 in1009.1 mb 0.00 in0.0 mm 0.00 in/hr0.0 mm/hr 1.04 in26.4 mm
07:57 PM 75.9°F24.4°C 72.1°F22.3°C 88% Calm Calm 3.1 mph5.0 kmh 29.79 in1008.8 mb 0.00 in0.0 mm 0.00 in/hr0.0 mm/hr 1.04 in26.4 mm
07:59 PM 75.9°F24.4°C 72.1°F22.3°C 88% 2.2 mph NE3.5 kmh NE 3.1 mph5.0 kmh 29.80 in1009.1 mb 0.00 in0.0 mm 0.00 in/hr0.0 mm/hr 1.04 in26.4 mm
08:01 PM 75.9°F24.4°C 72.1°F22.3°C 88% Calm Calm 3.1 mph5.0 kmh 29.80 in1009.1 mb 0.00 in0.0 mm 0.00 in/hr0.0 mm/hr 1.04 in26.4 mm
08:03 PM 75.9°F24.4°C 72.1°F22.3°C 88% Calm Calm 3.1 mph5.0 kmh 29.80 in1009.1 mb 0.00 in0.0 mm 0.00 in/hr0.0 mm/hr 1.04 in26.4 mm
08:05 PM 75.9°F24.4°C 72.1°F22.3°C 88% Calm Calm 3.1 mph5.0 kmh 29.80 in1009.1 mb 0.00 in0.0 mm 0.00 in/hr0.0 mm/hr 1.04 in26.4 mm
08:07 PM 75.9°F24.4°C 72.1°F22.3°C 88% 2.5 mph NNE4.0 kmh NNE 2.5 mph4.0 kmh 29.80 in1009.1 mb 0.00 in0.0 mm 0.00 in/hr0.0 mm/hr 1.04 in26.4 mm
08:09 PM 75.9°F24.4°C 72.1°F22.3°C 88% 2.5 mph NE4.0 kmh NE 2.5 mph4.0 kmh 29.80 in1009.1 mb 0.00 in0.0 mm 0.00 in/hr0.0 mm/hr 1.04 in26.4 mm
08:11 PM 75.9°F24.4°C 72.1°F22.3°C 88% Calm Calm 2.5 mph4.0 kmh 29.80 in1009.1 mb 0.00 in0.0 mm 0.00 in/hr0.0 mm/hr 1.04 in26.4 mm
08:13 PM 75.9°F24.4°C 72.1°F22.3°C 88% 2.5 mph NE4.0 kmh NE 2.5 mph4.0 kmh 29.80 in1009.1 mb 0.00 in0.0 mm 0.00 in/hr0.0 mm/hr 1.04 in26.4 mm
08:15 PM 75.9°F24.4°C 72.1°F22.3°C 88% 1.1 mph NE1.8 kmh NE 2.5 mph4.0 kmh 29.80 in1009.1 mb 0.00 in0.0 mm 0.00 in/hr0.0 mm/hr 1.04 in26.4 mm
08:17 PM 75.9°F24.4°C 72.1°F22.3°C 88% 6.0 mph ENE9.7 kmh ENE 6.0 mph9.7 kmh 29.80 in1009.1 mb 0.00 in0.0 mm 0.00 in/hr0.0 mm/hr 1.04 in26.4 mm
08:19 PM 75.9°F24.4°C 72.1°F22.3°C 88% 4.5 mph E7.2 kmh E 6.0 mph9.7 kmh 29.80 in1009.1 mb 0.00 in0.0 mm 0.00 in/hr0.0 mm/hr 1.04 in26.4 mm
08:21 PM 75.9°F24.4°C 72.1°F22.3°C 88% Calm Calm 6.0 mph9.7 kmh 29.80 in1009.1 mb 0.00 in0.0 mm 0.00 in/hr0.0 mm/hr 1.04 in26.4 mm
08:23 PM 75.9°F24.4°C 72.1°F22.3°C 88% 1.3 mph E2.1 kmh E 6.0 mph9.7 kmh 29.80 in1009.1 mb 0.00 in0.0 mm 0.00 in/hr0.0 mm/hr 1.04 in26.4 mm
08:25 PM 75.9°F24.4°C 72.1°F22.3°C 88% 1.8 mph E2.9 kmh E 6.0 mph9.7 kmh 29.80 in1009.1 mb 0.00 in0.0 mm 0.00 in/hr0.0 mm/hr 1.04 in26.4 mm
08:27 PM 75.9°F24.4°C 72.1°F22.3°C 88% 3.4 mph E5.5 kmh E 6.0 mph9.7 kmh 29.81 in1009.5 mb 0.00 in0.0 mm 0.00 in/hr0.0 mm/hr 1.04 in26.4 mm
08:29 PM 75.9°F24.4°C 72.1°F22.3°C 88% Calm Calm 4.5 mph7.2 kmh 29.80 in1009.1 mb 0.00 in0.0 mm 0.00 in/hr0.0 mm/hr 1.04 in26.4 mm
08:31 PM 75.9°F24.4°C 72.1°F22.3°C 88% 1.1 mph ENE1.8 kmh ENE 3.4 mph5.5 kmh 29.80 in1009.1 mb 0.00 in0.0 mm 0.00 in/hr0.0 mm/hr 1.04 in26.4 mm
08:33 PM 75.9°F24.4°C 72.1°F22.3°C 88% 2.9 mph E4.7 kmh E 3.4 mph5.5 kmh 29.80 in1009.1 mb 0.00 in0.0 mm 0.00 in/hr0.0 mm/hr 1.04 in26.4 mm
08:35 PM 75.9°F24.4°C 72.1°F22.3°C 88% Calm Calm 3.4 mph5.5 kmh 29.80 in1009.1 mb 0.00 in0.0 mm 0.00 in/hr0.0 mm/hr 1.04 in26.4 mm
08:37 PM 75.9°F24.4°C 72.1°F22.3°C 88% 5.1 mph E8.2 kmh E 5.1 mph8.2 kmh 29.80 in1009.1 mb 0.00 in0.0 mm 0.00 in/hr0.0 mm/hr 1.04 in26.4 mm
08:39 PM 75.9°F24.4°C 72.1°F22.3°C 88% 3.8 mph E6.1 kmh E 5.1 mph8.2 kmh 29.80 in1009.1 mb 0.00 in0.0 mm 0.00 in/hr0.0 mm/hr 1.04 in26.4 mm
08:41 PM 75.9°F24.4°C 72.1°F22.3°C 88% 3.8 mph E6.1 kmh E 5.1 mph8.2 kmh 29.80 in1009.1 mb 0.00 in0.0 mm 0.00 in/hr0.0 mm/hr 1.04 in26.4 mm
08:43 PM 75.9°F24.4°C 72.1°F22.3°C 88% 1.8 mph E2.9 kmh E 5.1 mph8.2 kmh 29.80 in1009.1 mb 0.00 in0.0 mm 0.00 in/hr0.0 mm/hr 1.04 in26.4 mm
08:45 PM 75.9°F24.4°C 72.1°F22.3°C 88% 1.8 mph E2.9 kmh E 5.1 mph8.2 kmh 29.81 in1009.5 mb 0.00 in0.0 mm 0.00 in/hr0.0 mm/hr 1.04 in26.4 mm
08:47 PM 75.9°F24.4°C 72.1°F22.3°C 88% 1.8 mph E2.9 kmh E 5.1 mph8.2 kmh 29.80 in1009.1 mb 0.00 in0.0 mm 0.00 in/hr0.0 mm/hr 1.04 in26.4 mm
08:49 PM 75.9°F24.4°C 72.1°F22.3°C 88% Calm Calm 3.8 mph6.1 kmh 29.80 in1009.1 mb 0.00 in0.0 mm 0.00 in/hr0.0 mm/hr 1.04 in26.4 mm
08:51 PM 75.9°F24.4°C 72.1°F22.3°C 88% Calm Calm 3.8 mph6.1 kmh 29.80 in1009.1 mb 0.00 in0.0 mm 0.00 in/hr0.0 mm/hr 1.04 in26.4 mm
08:53 PM 75.9°F24.4°C 72.1°F22.3°C 88% Calm Calm 1.8 mph2.9 kmh 29.80 in1009.1 mb 0.00 in0.0 mm 0.00 in/hr0.0 mm/hr 1.04 in26.4 mm
08:55 PM 75.9°F24.4°C 72.1°F22.3°C 88% 1.1 mph NE1.8 kmh NE 1.8 mph2.9 kmh 29.80 in1009.1 mb 0.00 in0.0 mm 0.00 in/hr0.0 mm/hr 1.04 in26.4 mm
08:57 PM 75.9°F24.4°C 72.1°F22.3°C 88% Calm Calm 1.8 mph2.9 kmh 29.80 in1009.1 mb 0.00 in0.0 mm 0.00 in/hr0.0 mm/hr 1.04 in26.4 mm
08:59 PM 75.9°F24.4°C 72.1°F22.3°C 88% Calm Calm 1.1 mph1.8 kmh 29.80 in1009.1 mb 0.00 in0.0 mm 0.00 in/hr0.0 mm/hr 1.04 in26.4 mm
09:01 PM 75.9°F24.4°C 72.1°F22.3°C 88% 5.6 mph E9.0 kmh E 5.6 mph9.0 kmh 29.80 in1009.1 mb 0.00 in0.0 mm 0.00 in/hr0.0 mm/hr 1.04 in26.4 mm
09:03 PM 75.9°F24.4°C 72.1°F22.3°C 88% Calm Calm 5.6 mph9.0 kmh 29.81 in1009.5 mb 0.00 in0.0 mm 0.00 in/hr0.0 mm/hr 1.04 in26.4 mm
09:05 PM 75.9°F24.4°C 72.1°F22.3°C 88% Calm Calm 5.6 mph9.0 kmh 29.81 in1009.5 mb 0.00 in0.0 mm 0.00 in/hr0.0 mm/hr 1.04 in26.4 mm
09:07 PM 75.9°F24.4°C 72.1°F22.3°C 88% 4.3 mph ESE6.9 kmh ESE 5.6 mph9.0 kmh 29.81 in1009.5 mb 0.00 in0.0 mm 0.00 in/hr0.0 mm/hr 1.04 in26.4 mm
09:09 PM 75.9°F24.4°C 72.1°F22.3°C 88% 3.8 mph E6.1 kmh E 5.6 mph9.0 kmh 29.81 in1009.5 mb 0.00 in0.0 mm 0.00 in/hr0.0 mm/hr 1.04 in26.4 mm
09:11 PM 75.9°F24.4°C 72.1°F22.3°C 88% 3.8 mph E6.1 kmh E 5.6 mph9.0 kmh 29.81 in1009.5 mb 0.00 in0.0 mm 0.00 in/hr0.0 mm/hr 1.04 in26.4 mm
09:13 PM 75.9°F24.4°C 72.1°F22.3°C 88% 4.9 mph E7.9 kmh E 4.9 mph7.9 kmh 29.81 in1009.5 mb 0.00 in0.0 mm 0.00 in/hr0.0 mm/hr 1.04 in26.4 mm
09:15 PM 75.9°F24.4°C 72.1°F22.3°C 88% 3.6 mph ENE5.8 kmh ENE 4.9 mph7.9 kmh 29.81 in1009.5 mb 0.00 in0.0 mm 0.00 in/hr0.0 mm/hr 1.04 in26.4 mm
09:17 PM 75.9°F24.4°C 72.1°F22.3°C 88% Calm Calm 4.9 mph7.9 kmh 29.81 in1009.5 mb 0.00 in0.0 mm 0.00 in/hr0.0 mm/hr 1.04 in26.4 mm
09:19 PM 75.9°F24.4°C 72.1°F22.3°C 88% 4.0 mph NE6.4 kmh NE 4.9 mph7.9 kmh 29.81 in1009.5 mb 0.00 in0.0 mm 0.00 in/hr0.0 mm/hr 1.04 in26.4 mm
09:21 PM 75.9°F24.4°C 72.1°F22.3°C 88% 3.8 mph NE6.1 kmh NE 4.9 mph7.9 kmh 29.81 in1009.5 mb 0.00 in0.0 mm 0.00 in/hr0.0 mm/hr 1.04 in26.4 mm
09:23 PM 75.7°F24.3°C 71.9°F22.2°C 88% 1.8 mph NNE2.9 kmh NNE 4.9 mph7.9 kmh 29.81 in1009.5 mb 0.00 in0.0 mm 0.00 in/hr0.0 mm/hr 1.04 in26.4 mm
09:25 PM 75.7°F24.3°C 71.9°F22.2°C 88% Calm Calm 4.0 mph6.4 kmh 29.81 in1009.5 mb 0.00 in0.0 mm 0.00 in/hr0.0 mm/hr 1.04 in26.4 mm
09:27 PM 75.7°F24.3°C 71.9°F22.2°C 88% 4.0 mph NNE6.4 kmh NNE 4.0 mph6.4 kmh 29.81 in1009.5 mb 0.00 in0.0 mm 0.00 in/hr0.0 mm/hr 1.04 in26.4 mm
09:29 PM 75.7°F24.3°C 71.9°F22.2°C 88% Calm Calm 4.0 mph6.4 kmh 29.81 in1009.5 mb 0.00 in0.0 mm 0.00 in/hr0.0 mm/hr 1.04 in26.4 mm
09:31 PM 75.7°F24.3°C 71.9°F22.2°C 88% Calm Calm 4.0 mph6.4 kmh 29.81 in1009.5 mb 0.00 in0.0 mm 0.00 in/hr0.0 mm/hr 1.04 in26.4 mm
09:33 PM 75.7°F24.3°C 71.9°F22.2°C 88% 0.7 mph ENE1.1 kmh ENE 4.0 mph6.4 kmh 29.81 in1009.5 mb 0.00 in0.0 mm 0.00 in/hr0.0 mm/hr 1.04 in26.4 mm
09:35 PM 75.7°F24.3°C 71.9°F22.2°C 88% 3.4 mph ENE5.5 kmh ENE 4.0 mph6.4 kmh 29.81 in1009.5 mb 0.00 in0.0 mm 0.00 in/hr0.0 mm/hr 1.04 in26.4 mm
09:37 PM 75.7°F24.3°C 71.9°F22.2°C 88% 2.7 mph ENE4.3 kmh ENE 4.0 mph6.4 kmh 29.80 in1009.1 mb 0.00 in0.0 mm 0.00 in/hr0.0 mm/hr 1.04 in26.4 mm
09:39 PM 75.7°F24.3°C 71.9°F22.2°C 88% Calm Calm 3.4 mph5.5 kmh 29.81 in1009.5 mb 0.00 in0.0 mm 0.00 in/hr0.0 mm/hr 1.04 in26.4 mm
09:41 PM 75.7°F24.3°C 71.9°F22.2°C 88% Calm Calm 3.4 mph5.5 kmh 29.81 in1009.5 mb 0.00 in0.0 mm 0.00 in/hr0.0 mm/hr 1.04 in26.4 mm
09:43 PM 75.7°F24.3°C 71.9°F22.2°C 88% 0.9 mph ENE1.4 kmh ENE 3.4 mph5.5 kmh 29.81 in1009.5 mb 0.00 in0.0 mm 0.00 in/hr0.0 mm/hr 1.04 in26.4 mm
09:45 PM 75.7°F24.3°C 71.9°F22.2°C 88% 2.0 mph ENE3.2 kmh ENE 3.4 mph5.5 kmh 29.81 in1009.5 mb 0.00 in0.0 mm 0.00 in/hr0.0 mm/hr 1.04 in26.4 mm
09:47 PM 75.7°F24.3°C 71.9°F22.2°C 88% 6.0 mph ENE9.7 kmh ENE 6.0 mph9.7 kmh 29.81 in1009.5 mb 0.00 in0.0 mm 0.00 in/hr0.0 mm/hr 1.04 in26.4 mm
09:49 PM 75.7°F24.3°C 71.9°F22.2°C 88% Calm Calm 6.0 mph9.7 kmh 29.80 in1009.1 mb 0.00 in0.0 mm 0.00 in/hr0.0 mm/hr 1.04 in26.4 mm
09:51 PM 75.7°F24.3°C 71.9°F22.2°C 88% Calm Calm 6.0 mph9.7 kmh 29.81 in1009.5 mb 0.00 in0.0 mm 0.00 in/hr0.0 mm/hr 1.04 in26.4 mm
09:53 PM 75.7°F24.3°C 71.9°F22.2°C 88% Calm Calm 6.0 mph9.7 kmh 29.81 in1009.5 mb 0.00 in0.0 mm 0.00 in/hr0.0 mm/hr 1.04 in26.4 mm
09:55 PM 75.6°F24.2°C 71.8°F22.1°C 88% Calm Calm 6.0 mph9.7 kmh 29.81 in1009.5 mb 0.00 in0.0 mm 0.00 in/hr0.0 mm/hr 1.04 in26.4 mm
09:57 PM 75.6°F24.2°C 71.8°F22.1°C 88% Calm Calm 6.0 mph9.7 kmh 29.80 in1009.1 mb 0.00 in0.0 mm 0.00 in/hr0.0 mm/hr 1.04 in26.4 mm
09:59 PM 75.6°F24.2°C 71.8°F22.1°C 88% Calm Calm -- 29.81 in1009.5 mb 0.00 in0.0 mm 0.00 in/hr0.0 mm/hr 1.04 in26.4 mm
10:01 PM 75.6°F24.2°C 71.8°F22.1°C 88% Calm Calm -- 29.80 in1009.1 mb 0.00 in0.0 mm 0.00 in/hr0.0 mm/hr 1.04 in26.4 mm
10:03 PM 75.7°F24.3°C 71.9°F22.2°C 88% Calm Calm -- 29.81 in1009.5 mb 0.00 in0.0 mm 0.00 in/hr0.0 mm/hr 1.04 in26.4 mm
10:05 PM 75.7°F24.3°C 71.9°F22.2°C 88% Calm Calm -- 29.81 in1009.5 mb 0.00 in0.0 mm 0.00 in/hr0.0 mm/hr 1.04 in26.4 mm
10:07 PM 75.7°F24.3°C 71.9°F22.2°C 88% Calm Calm -- 29.81 in1009.5 mb 0.00 in0.0 mm 0.00 in/hr0.0 mm/hr 1.04 in26.4 mm
10:09 PM 75.6°F24.2°C 71.8°F22.1°C 88% Calm Calm -- 29.81 in1009.5 mb 0.00 in0.0 mm 0.00 in/hr0.0 mm/hr 1.04 in26.4 mm
10:11 PM 75.4°F24.1°C 71.6°F22.0°C 88% 2.9 mph N4.7 kmh N 2.9 mph4.7 kmh 29.81 in1009.5 mb 0.00 in0.0 mm 0.00 in/hr0.0 mm/hr 1.04 in26.4 mm
10:13 PM 75.4°F24.1°C 71.6°F22.0°C 88% 2.9 mph N4.7 kmh N 2.9 mph4.7 kmh 29.81 in1009.5 mb 0.00 in0.0 mm 0.00 in/hr0.0 mm/hr 1.04 in26.4 mm
10:15 PM 75.4°F24.1°C 71.6°F22.0°C 88% 4.3 mph NNE6.9 kmh NNE 4.3 mph6.9 kmh 29.80 in1009.1 mb 0.00 in0.0 mm 0.00 in/hr0.0 mm/hr 1.04 in26.4 mm
10:17 PM 75.4°F24.1°C 71.9°F22.2°C 89% 3.6 mph NNE5.8 kmh NNE 4.3 mph6.9 kmh 29.80 in1009.1 mb 0.00 in0.0 mm 0.00 in/hr0.0 mm/hr 1.04 in26.4 mm
10:19 PM 75.4°F24.1°C 71.9°F22.2°C 89% 0.9 mph NNE1.4 kmh NNE 4.3 mph6.9 kmh 29.80 in1009.1 mb 0.00 in0.0 mm 0.00 in/hr0.0 mm/hr 1.04 in26.4 mm
10:21 PM 75.4°F24.1°C 71.9°F22.2°C 89% 0.9 mph NNE1.4 kmh NNE 4.3 mph6.9 kmh 29.80 in1009.1 mb 0.00 in0.0 mm 0.00 in/hr0.0 mm/hr 1.04 in26.4 mm
10:23 PM 75.4°F24.1°C 71.9°F22.2°C 89% 1.8 mph NE2.9 kmh NE 4.3 mph6.9 kmh 29.80 in1009.1 mb 0.00 in0.0 mm 0.00 in/hr0.0 mm/hr 1.04 in26.4 mm
10:25 PM 75.2°F24.0°C 71.7°F22.1°C 89% Calm Calm 4.3 mph6.9 kmh 29.80 in1009.1 mb 0.00 in0.0 mm 0.00 in/hr0.0 mm/hr 1.04 in26.4 mm
10:27 PM 75.2°F24.0°C 71.7°F22.1°C 89% Calm Calm 3.6 mph5.8 kmh 29.80 in1009.1 mb 0.00 in0.0 mm 0.00 in/hr0.0 mm/hr 1.04 in26.4 mm
10:29 PM 75.0°F23.9°C 71.6°F22.0°C 89% 1.6 mph NE2.6 kmh NE 1.8 mph2.9 kmh 29.81 in1009.5 mb 0.00 in0.0 mm 0.00 in/hr0.0 mm/hr 1.04 in26.4 mm
10:31 PM 75.0°F23.9°C 71.6°F22.0°C 89% 5.4 mph NE8.7 kmh NE 5.4 mph8.7 kmh 29.80 in1009.1 mb 0.00 in0.0 mm 0.00 in/hr0.0 mm/hr 1.04 in26.4 mm
10:33 PM 75.0°F23.9°C 71.6°F22.0°C 89% Calm Calm 5.4 mph8.7 kmh 29.80 in1009.1 mb 0.00 in0.0 mm 0.00 in/hr0.0 mm/hr 1.04 in26.4 mm
10:35 PM 75.0°F23.9°C 71.6°F22.0°C 89% Calm Calm 5.4 mph8.7 kmh 29.81 in1009.5 mb 0.00 in0.0 mm 0.00 in/hr0.0 mm/hr 1.04 in26.4 mm
10:37 PM 75.0°F23.9°C 71.6°F22.0°C 89% Calm Calm 5.4 mph8.7 kmh 29.81 in1009.5 mb 0.00 in0.0 mm 0.00 in/hr0.0 mm/hr 1.04 in26.4 mm
10:39 PM 75.0°F23.9°C 71.6°F22.0°C 89% Calm Calm 5.4 mph8.7 kmh 29.80 in1009.1 mb 0.00 in0.0 mm 0.00 in/hr0.0 mm/hr 1.04 in26.4 mm
10:41 PM 75.0°F23.9°C 71.6°F22.0°C 89% Calm Calm 5.4 mph8.7 kmh 29.81 in1009.5 mb 0.00 in0.0 mm 0.00 in/hr0.0 mm/hr 1.04 in26.4 mm
10:43 PM 75.0°F23.9°C 71.6°F22.0°C 89% Calm Calm -- 29.81 in1009.5 mb 0.00 in0.0 mm 0.00 in/hr0.0 mm/hr 1.04 in26.4 mm
10:45 PM 75.0°F23.9°C 71.6°F22.0°C 89% Calm Calm -- 29.81 in1009.5 mb 0.00 in0.0 mm 0.00 in/hr0.0 mm/hr 1.04 in26.4 mm
10:47 PM 75.0°F23.9°C 71.6°F22.0°C 89% Calm Calm -- 29.80 in1009.1 mb 0.00 in0.0 mm 0.00 in/hr0.0 mm/hr 1.04 in26.4 mm
10:49 PM 75.0°F23.9°C 71.6°F22.0°C 89% Calm Calm -- 29.80 in1009.1 mb 0.00 in0.0 mm 0.00 in/hr0.0 mm/hr 1.04 in26.4 mm
10:51 PM 75.0°F23.9°C 71.6°F22.0°C 89% Calm Calm -- 29.81 in1009.5 mb 0.00 in0.0 mm 0.00 in/hr0.0 mm/hr 1.04 in26.4 mm
10:53 PM 75.0°F23.9°C 71.6°F22.0°C 89% Calm Calm -- 29.81 in1009.5 mb 0.00 in0.0 mm 0.00 in/hr0.0 mm/hr 1.04 in26.4 mm
10:55 PM 75.0°F23.9°C 71.6°F22.0°C 89% Calm Calm -- 29.81 in1009.5 mb 0.00 in0.0 mm 0.00 in/hr0.0 mm/hr 1.04 in26.4 mm
10:57 PM 75.0°F23.9°C 71.6°F22.0°C 89% Calm Calm -- 29.81 in1009.5 mb 0.00 in0.0 mm 0.00 in/hr0.0 mm/hr 1.04 in26.4 mm
10:59 PM 75.0°F23.9°C 71.6°F22.0°C 89% Calm Calm -- 29.81 in1009.5 mb 0.00 in0.0 mm 0.00 in/hr0.0 mm/hr 1.04 in26.4 mm
11:01 PM 75.0°F23.9°C 71.6°F22.0°C 89% 1.6 mph ENE2.6 kmh ENE 1.6 mph2.6 kmh 29.81 in1009.5 mb 0.00 in0.0 mm 0.00 in/hr0.0 mm/hr 1.04 in26.4 mm
11:03 PM 75.0°F23.9°C 71.9°F22.2°C 90% Calm Calm 1.6 mph2.6 kmh 29.81 in1009.5 mb 0.00 in0.0 mm 0.00 in/hr0.0 mm/hr 1.04 in26.4 mm
11:05 PM 75.0°F23.9°C 71.9°F22.2°C 90% 2.0 mph NE3.2 kmh NE 2.0 mph3.2 kmh 29.81 in1009.5 mb 0.00 in0.0 mm 0.00 in/hr0.0 mm/hr 1.04 in26.4 mm
11:07 PM 74.8°F23.8°C 71.7°F22.1°C 90% Calm Calm 2.0 mph3.2 kmh 29.80 in1009.1 mb 0.00 in0.0 mm 0.00 in/hr0.0 mm/hr 1.04 in26.4 mm
11:09 PM 74.8°F23.8°C 71.7°F22.1°C 90% Calm Calm 2.0 mph3.2 kmh 29.80 in1009.1 mb 0.00 in0.0 mm 0.00 in/hr0.0 mm/hr 1.04 in26.4 mm
11:11 PM 74.8°F23.8°C 71.7°F22.1°C 90% Calm Calm 2.0 mph3.2 kmh 29.80 in1009.1 mb 0.00 in0.0 mm 0.00 in/hr0.0 mm/hr 1.04 in26.4 mm
11:13 PM 74.8°F23.8°C 71.7°F22.1°C 90% Calm Calm 2.0 mph3.2 kmh 29.80 in1009.1 mb 0.00 in0.0 mm 0.00 in/hr0.0 mm/hr 1.04 in26.4 mm
11:15 PM 74.8°F23.8°C 71.7°F22.1°C 90% Calm Calm 2.0 mph3.2 kmh 29.80 in1009.1 mb 0.00 in0.0 mm 0.00 in/hr0.0 mm/hr 1.04 in26.4 mm
11:17 PM 74.8°F23.8°C 71.7°F22.1°C 90% Calm Calm -- 29.80 in1009.1 mb 0.00 in0.0 mm 0.00 in/hr0.0 mm/hr 1.04 in26.4 mm
11:19 PM 74.8°F23.8°C 71.7°F22.1°C 90% Calm Calm -- 29.80 in1009.1 mb 0.00 in0.0 mm 0.00 in/hr0.0 mm/hr 1.04 in26.4 mm
11:21 PM 74.8°F23.8°C 71.7°F22.1°C 90% Calm Calm -- 29.80 in1009.1 mb 0.00 in0.0 mm 0.00 in/hr0.0 mm/hr 1.04 in26.4 mm
11:23 PM 74.8°F23.8°C 71.7°F22.1°C 90% Calm Calm -- 29.80 in1009.1 mb 0.00 in0.0 mm 0.00 in/hr0.0 mm/hr 1.04 in26.4 mm
11:25 PM 74.8°F23.8°C 71.7°F22.1°C 90% Calm Calm -- 29.80 in1009.1 mb 0.00 in0.0 mm 0.00 in/hr0.0 mm/hr 1.04 in26.4 mm
11:27 PM 74.8°F23.8°C 71.7°F22.1°C 90% Calm Calm -- 29.80 in1009.1 mb 0.00 in0.0 mm 0.00 in/hr0.0 mm/hr 1.04 in26.4 mm
11:29 PM 74.8°F23.8°C 71.7°F22.1°C 90% Calm Calm -- 29.79 in1008.8 mb 0.00 in0.0 mm 0.00 in/hr0.0 mm/hr 1.04 in26.4 mm
11:31 PM 74.8°F23.8°C 71.7°F22.1°C 90% Calm Calm -- 29.79 in1008.8 mb 0.00 in0.0 mm 0.00 in/hr0.0 mm/hr 1.04 in26.4 mm
11:33 PM 74.8°F23.8°C 71.7°F22.1°C 90% 1.6 mph E2.6 kmh E 1.6 mph2.6 kmh 29.79 in1008.8 mb 0.00 in0.0 mm 0.00 in/hr0.0 mm/hr 1.04 in26.4 mm
11:35 PM 74.7°F23.7°C 71.5°F21.9°C 90% Calm Calm 1.6 mph2.6 kmh 29.79 in1008.8 mb 0.00 in0.0 mm 0.00 in/hr0.0 mm/hr 1.04 in26.4 mm
11:37 PM 74.8°F23.8°C 71.7°F22.1°C 90% Calm Calm 1.6 mph2.6 kmh 29.79 in1008.8 mb 0.00 in0.0 mm 0.00 in/hr0.0 mm/hr 1.04 in26.4 mm
11:39 PM 74.7°F23.7°C 71.5°F21.9°C 90% Calm Calm 1.6 mph2.6 kmh 29.79 in1008.8 mb 0.00 in0.0 mm 0.00 in/hr0.0 mm/hr 1.04 in26.4 mm
11:41 PM 74.7°F23.7°C 71.5°F21.9°C 90% 1.1 mph E1.8 kmh E 1.6 mph2.6 kmh 29.79 in1008.8 mb 0.00 in0.0 mm 0.00 in/hr0.0 mm/hr 1.04 in26.4 mm
11:43 PM 74.7°F23.7°C 71.5°F21.9°C 90% 1.1 mph ENE1.8 kmh ENE 1.6 mph2.6 kmh 29.79 in1008.8 mb 0.00 in0.0 mm 0.00 in/hr0.0 mm/hr 1.04 in26.4 mm
11:45 PM 74.5°F23.6°C 71.4°F21.9°C 90% 3.1 mph N5.0 kmh N 3.1 mph5.0 kmh 29.79 in1008.8 mb 0.00 in0.0 mm 0.00 in/hr0.0 mm/hr 1.04 in26.4 mm
11:47 PM 74.5°F23.6°C 71.4°F21.9°C 90% Calm Calm 3.1 mph5.0 kmh 29.80 in1009.1 mb 0.00 in0.0 mm 0.00 in/hr0.0 mm/hr 1.04 in26.4 mm
11:49 PM 74.5°F23.6°C 71.4°F21.9°C 90% Calm Calm 3.1 mph5.0 kmh 29.79 in1008.8 mb 0.00 in0.0 mm 0.00 in/hr0.0 mm/hr 1.04 in26.4 mm
11:51 PM 74.5°F23.6°C 71.4°F21.9°C 90% 5.8 mph NNE9.3 kmh NNE 5.8 mph9.3 kmh 29.80 in1009.1 mb 0.02 in0.5 mm 0.60 in/hr15.2 mm/hr 1.06 in26.9 mm
11:53 PM 74.5°F23.6°C 71.4°F21.9°C 90% 5.8 mph NNE9.3 kmh NNE 5.8 mph9.3 kmh 29.79 in1008.8 mb 0.02 in0.5 mm 0.00 in/hr0.0 mm/hr 1.06 in26.9 mm
11:55 PM 74.5°F23.6°C 71.4°F21.9°C 90% 3.8 mph NNE6.1 kmh NNE 5.8 mph9.3 kmh 29.79 in1008.8 mb 0.04 in1.0 mm 0.60 in/hr15.2 mm/hr 1.08 in27.4 mm
11:57 PM 74.5°F23.6°C 71.4°F21.9°C 90% 5.6 mph NE9.0 kmh NE 5.8 mph9.3 kmh 29.79 in1008.8 mb 0.04 in1.0 mm 0.00 in/hr0.0 mm/hr 1.08 in27.4 mm
11:59 PM 74.3°F23.5°C 71.2°F21.8°C 90% Calm Calm 5.8 mph9.3 kmh 29.79 in1008.8 mb 0.06 in1.5 mm 0.60 in/hr15.2 mm/hr 1.10 in27.9 mm